<?xml version="1.0" encoding="UTF-8" standalone="no" ?>
<gpx xmlns="http://www.topografix.com/GPX/1/1" xmlns:xsi="http://www.w3.org/2001/XMLSchema-instance" xsi:schemaLocation="http://www.topografix.com/GPX/1/1 http://www.topografix.com/GPX/1/1/gpx.xsd" version="1.1" creator="VisuGPX - https://www.visugpx.com">
  <metadata>
    <name>83-M-Correns</name>
    <desc><![CDATA[83-M-Correns : la barrage - le château]]></desc>
  </metadata>
  <trk>
    <name><![CDATA[2015-09-23-M-Correns]]></name>
    <trkseg>
      <trkpt lat="43.48521" lon="6.08097">
        <ele>146.2</ele>
        <time>2015-09-23T12:05:01Z</time>
      </trkpt>
      <trkpt lat="43.48527" lon="6.08088">
        <ele>144.1</ele>
        <time>2015-09-23T12:05:48Z</time>
      </trkpt>
      <trkpt lat="43.48527" lon="6.08087">
        <ele>144</ele>
        <time>2015-09-23T12:05:49Z</time>
      </trkpt>
      <trkpt lat="43.48536" lon="6.0809">
        <ele>144.2</ele>
        <time>2015-09-23T12:09:39Z</time>
      </trkpt>
      <trkpt lat="43.48551" lon="6.0808">
        <ele>143.9</ele>
        <time>2015-09-23T12:10:15Z</time>
      </trkpt>
      <trkpt lat="43.48559" lon="6.08083">
        <ele>144.8</ele>
        <time>2015-09-23T12:10:24Z</time>
      </trkpt>
      <trkpt lat="43.48568" lon="6.08082">
        <ele>144.7</ele>
        <time>2015-09-23T12:10:35Z</time>
      </trkpt>
      <trkpt lat="43.48577" lon="6.0808">
        <ele>146.3</ele>
        <time>2015-09-23T12:10:45Z</time>
      </trkpt>
      <trkpt lat="43.48578" lon="6.0808">
        <ele>146.6</ele>
        <time>2015-09-23T12:10:46Z</time>
      </trkpt>
      <trkpt lat="43.48593" lon="6.08074">
        <ele>147.1</ele>
        <time>2015-09-23T12:11:03Z</time>
      </trkpt>
      <trkpt lat="43.48599" lon="6.08065">
        <ele>146.2</ele>
        <time>2015-09-23T12:11:09Z</time>
      </trkpt>
      <trkpt lat="43.48605" lon="6.08057">
        <ele>146</ele>
        <time>2015-09-23T12:11:18Z</time>
      </trkpt>
      <trkpt lat="43.48613" lon="6.08053">
        <ele>146.9</ele>
        <time>2015-09-23T12:11:33Z</time>
      </trkpt>
      <trkpt lat="43.4862" lon="6.08046">
        <ele>146.9</ele>
        <time>2015-09-23T12:11:40Z</time>
      </trkpt>
      <trkpt lat="43.48627" lon="6.08038">
        <ele>147.6</ele>
        <time>2015-09-23T12:11:48Z</time>
      </trkpt>
      <trkpt lat="43.48628" lon="6.08038">
        <ele>147.5</ele>
        <time>2015-09-23T12:11:49Z</time>
      </trkpt>
      <trkpt lat="43.48643" lon="6.0803">
        <ele>146.7</ele>
        <time>2015-09-23T12:12:05Z</time>
      </trkpt>
      <trkpt lat="43.48651" lon="6.08026">
        <ele>146.8</ele>
        <time>2015-09-23T12:12:13Z</time>
      </trkpt>
      <trkpt lat="43.48659" lon="6.08025">
        <ele>147.3</ele>
        <time>2015-09-23T12:12:20Z</time>
      </trkpt>
      <trkpt lat="43.48666" lon="6.08022">
        <ele>146.4</ele>
        <time>2015-09-23T12:12:25Z</time>
      </trkpt>
      <trkpt lat="43.48672" lon="6.08015">
        <ele>146.5</ele>
        <time>2015-09-23T12:12:30Z</time>
      </trkpt>
      <trkpt lat="43.4868" lon="6.08017">
        <ele>146</ele>
        <time>2015-09-23T12:12:38Z</time>
      </trkpt>
      <trkpt lat="43.48684" lon="6.08026">
        <ele>146.6</ele>
        <time>2015-09-23T12:12:43Z</time>
      </trkpt>
      <trkpt lat="43.48692" lon="6.08029">
        <ele>146.7</ele>
        <time>2015-09-23T12:12:54Z</time>
      </trkpt>
      <trkpt lat="43.48693" lon="6.08029">
        <ele>146.8</ele>
        <time>2015-09-23T12:12:55Z</time>
      </trkpt>
      <trkpt lat="43.48707" lon="6.08023">
        <ele>146.8</ele>
        <time>2015-09-23T12:13:13Z</time>
      </trkpt>
      <trkpt lat="43.48714" lon="6.08017">
        <ele>147.3</ele>
        <time>2015-09-23T12:13:20Z</time>
      </trkpt>
      <trkpt lat="43.48721" lon="6.0801">
        <ele>147.8</ele>
        <time>2015-09-23T12:13:26Z</time>
      </trkpt>
      <trkpt lat="43.48727" lon="6.08002">
        <ele>147.3</ele>
        <time>2015-09-23T12:13:34Z</time>
      </trkpt>
      <trkpt lat="43.48733" lon="6.07993">
        <ele>148.3</ele>
        <time>2015-09-23T12:13:41Z</time>
      </trkpt>
      <trkpt lat="43.48738" lon="6.07985">
        <ele>148.8</ele>
        <time>2015-09-23T12:13:46Z</time>
      </trkpt>
      <trkpt lat="43.48743" lon="6.07976">
        <ele>149.3</ele>
        <time>2015-09-23T12:13:55Z</time>
      </trkpt>
      <trkpt lat="43.48743" lon="6.07975">
        <ele>149.1</ele>
        <time>2015-09-23T12:13:56Z</time>
      </trkpt>
      <trkpt lat="43.48758" lon="6.07965">
        <ele>149.5</ele>
        <time>2015-09-23T12:14:16Z</time>
      </trkpt>
      <trkpt lat="43.48765" lon="6.07959">
        <ele>148.9</ele>
        <time>2015-09-23T12:14:23Z</time>
      </trkpt>
      <trkpt lat="43.48772" lon="6.07957">
        <ele>150.3</ele>
        <time>2015-09-23T12:14:29Z</time>
      </trkpt>
      <trkpt lat="43.4878" lon="6.07955">
        <ele>148.7</ele>
        <time>2015-09-23T12:14:36Z</time>
      </trkpt>
      <trkpt lat="43.48787" lon="6.07956">
        <ele>149.7</ele>
        <time>2015-09-23T12:14:40Z</time>
      </trkpt>
      <trkpt lat="43.48795" lon="6.07951">
        <ele>148.8</ele>
        <time>2015-09-23T12:14:51Z</time>
      </trkpt>
      <trkpt lat="43.48784" lon="6.07922">
        <ele>148</ele>
        <time>2015-09-23T12:15:24Z</time>
      </trkpt>
      <trkpt lat="43.4879" lon="6.07915">
        <ele>148.1</ele>
        <time>2015-09-23T12:15:29Z</time>
      </trkpt>
      <trkpt lat="43.48787" lon="6.07905">
        <ele>148</ele>
        <time>2015-09-23T12:15:31Z</time>
      </trkpt>
      <trkpt lat="43.48786" lon="6.07893">
        <ele>147.6</ele>
        <time>2015-09-23T12:15:37Z</time>
      </trkpt>
      <trkpt lat="43.48782" lon="6.07882">
        <ele>150.1</ele>
        <time>2015-09-23T12:15:44Z</time>
      </trkpt>
      <trkpt lat="43.48777" lon="6.07872">
        <ele>149.3</ele>
        <time>2015-09-23T12:15:54Z</time>
      </trkpt>
      <trkpt lat="43.48775" lon="6.07861">
        <ele>149.7</ele>
        <time>2015-09-23T12:16:02Z</time>
      </trkpt>
      <trkpt lat="43.4878" lon="6.07852">
        <ele>148.6</ele>
        <time>2015-09-23T12:16:16Z</time>
      </trkpt>
      <trkpt lat="43.48786" lon="6.07844">
        <ele>148.1</ele>
        <time>2015-09-23T12:16:24Z</time>
      </trkpt>
      <trkpt lat="43.48789" lon="6.07833">
        <ele>149.1</ele>
        <time>2015-09-23T12:16:32Z</time>
      </trkpt>
      <trkpt lat="43.48789" lon="6.07831">
        <ele>149.4</ele>
        <time>2015-09-23T12:16:33Z</time>
      </trkpt>
      <trkpt lat="43.48798" lon="6.07814">
        <ele>150.2</ele>
        <time>2015-09-23T12:16:49Z</time>
      </trkpt>
      <trkpt lat="43.48805" lon="6.07806">
        <ele>151.2</ele>
        <time>2015-09-23T12:16:56Z</time>
      </trkpt>
      <trkpt lat="43.48813" lon="6.07803">
        <ele>151.2</ele>
        <time>2015-09-23T12:17:03Z</time>
      </trkpt>
      <trkpt lat="43.48822" lon="6.07803">
        <ele>150.9</ele>
        <time>2015-09-23T12:17:11Z</time>
      </trkpt>
      <trkpt lat="43.4883" lon="6.07804">
        <ele>151.8</ele>
        <time>2015-09-23T12:17:20Z</time>
      </trkpt>
      <trkpt lat="43.48838" lon="6.07808">
        <ele>152.6</ele>
        <time>2015-09-23T12:17:28Z</time>
      </trkpt>
      <trkpt lat="43.48846" lon="6.07801">
        <ele>152.3</ele>
        <time>2015-09-23T12:17:37Z</time>
      </trkpt>
      <trkpt lat="43.48847" lon="6.078">
        <ele>152</ele>
        <time>2015-09-23T12:17:38Z</time>
      </trkpt>
      <trkpt lat="43.48857" lon="6.07783">
        <ele>152.3</ele>
        <time>2015-09-23T12:17:49Z</time>
      </trkpt>
      <trkpt lat="43.48859" lon="6.07772">
        <ele>153.6</ele>
        <time>2015-09-23T12:17:56Z</time>
      </trkpt>
      <trkpt lat="43.48861" lon="6.07762">
        <ele>152.2</ele>
        <time>2015-09-23T12:18:02Z</time>
      </trkpt>
      <trkpt lat="43.48858" lon="6.07752">
        <ele>153.6</ele>
        <time>2015-09-23T12:18:08Z</time>
      </trkpt>
      <trkpt lat="43.48852" lon="6.07742">
        <ele>153</ele>
        <time>2015-09-23T12:18:15Z</time>
      </trkpt>
      <trkpt lat="43.48847" lon="6.07733">
        <ele>153.2</ele>
        <time>2015-09-23T12:18:22Z</time>
      </trkpt>
      <trkpt lat="43.48844" lon="6.07721">
        <ele>153.6</ele>
        <time>2015-09-23T12:18:34Z</time>
      </trkpt>
      <trkpt lat="43.48851" lon="6.07714">
        <ele>153.3</ele>
        <time>2015-09-23T12:18:43Z</time>
      </trkpt>
      <trkpt lat="43.48851" lon="6.07713">
        <ele>153.4</ele>
        <time>2015-09-23T12:18:44Z</time>
      </trkpt>
      <trkpt lat="43.48865" lon="6.07702">
        <ele>153</ele>
        <time>2015-09-23T12:18:59Z</time>
      </trkpt>
      <trkpt lat="43.48873" lon="6.07696">
        <ele>154.6</ele>
        <time>2015-09-23T12:19:07Z</time>
      </trkpt>
      <trkpt lat="43.48881" lon="6.0769">
        <ele>153</ele>
        <time>2015-09-23T12:19:18Z</time>
      </trkpt>
      <trkpt lat="43.48887" lon="6.07684">
        <ele>153.9</ele>
        <time>2015-09-23T12:19:24Z</time>
      </trkpt>
      <trkpt lat="43.48894" lon="6.07678">
        <ele>154.4</ele>
        <time>2015-09-23T12:19:31Z</time>
      </trkpt>
      <trkpt lat="43.48901" lon="6.07671">
        <ele>154.2</ele>
        <time>2015-09-23T12:19:38Z</time>
      </trkpt>
      <trkpt lat="43.48908" lon="6.07664">
        <ele>153.1</ele>
        <time>2015-09-23T12:19:45Z</time>
      </trkpt>
      <trkpt lat="43.48909" lon="6.07663">
        <ele>152.9</ele>
        <time>2015-09-23T12:19:46Z</time>
      </trkpt>
      <trkpt lat="43.4892" lon="6.07649">
        <ele>153.6</ele>
        <time>2015-09-23T12:19:59Z</time>
      </trkpt>
      <trkpt lat="43.48925" lon="6.0764">
        <ele>154.7</ele>
        <time>2015-09-23T12:20:06Z</time>
      </trkpt>
      <trkpt lat="43.4893" lon="6.07631">
        <ele>154.5</ele>
        <time>2015-09-23T12:20:13Z</time>
      </trkpt>
      <trkpt lat="43.48933" lon="6.0762">
        <ele>154.6</ele>
        <time>2015-09-23T12:20:21Z</time>
      </trkpt>
      <trkpt lat="43.48936" lon="6.0761">
        <ele>154.8</ele>
        <time>2015-09-23T12:20:28Z</time>
      </trkpt>
      <trkpt lat="43.48939" lon="6.076">
        <ele>155.7</ele>
        <time>2015-09-23T12:20:35Z</time>
      </trkpt>
      <trkpt lat="43.48942" lon="6.07588">
        <ele>156</ele>
        <time>2015-09-23T12:20:42Z</time>
      </trkpt>
      <trkpt lat="43.48945" lon="6.07577">
        <ele>157.5</ele>
        <time>2015-09-23T12:20:49Z</time>
      </trkpt>
      <trkpt lat="43.48945" lon="6.07575">
        <ele>157.6</ele>
        <time>2015-09-23T12:20:50Z</time>
      </trkpt>
      <trkpt lat="43.48951" lon="6.07555">
        <ele>156.7</ele>
        <time>2015-09-23T12:21:03Z</time>
      </trkpt>
      <trkpt lat="43.48955" lon="6.07544">
        <ele>157.6</ele>
        <time>2015-09-23T12:21:10Z</time>
      </trkpt>
      <trkpt lat="43.48959" lon="6.07534">
        <ele>156.7</ele>
        <time>2015-09-23T12:21:17Z</time>
      </trkpt>
      <trkpt lat="43.48962" lon="6.07523">
        <ele>156.6</ele>
        <time>2015-09-23T12:21:25Z</time>
      </trkpt>
      <trkpt lat="43.48967" lon="6.07513">
        <ele>158.5</ele>
        <time>2015-09-23T12:21:34Z</time>
      </trkpt>
      <trkpt lat="43.48971" lon="6.07503">
        <ele>157.8</ele>
        <time>2015-09-23T12:21:42Z</time>
      </trkpt>
      <trkpt lat="43.48975" lon="6.07493">
        <ele>158.7</ele>
        <time>2015-09-23T12:21:49Z</time>
      </trkpt>
      <trkpt lat="43.4898" lon="6.07483">
        <ele>158.9</ele>
        <time>2015-09-23T12:21:57Z</time>
      </trkpt>
      <trkpt lat="43.4898" lon="6.07482">
        <ele>158.8</ele>
        <time>2015-09-23T12:21:58Z</time>
      </trkpt>
      <trkpt lat="43.4899" lon="6.07465">
        <ele>158.6</ele>
        <time>2015-09-23T12:22:15Z</time>
      </trkpt>
      <trkpt lat="43.48995" lon="6.07457">
        <ele>159.2</ele>
        <time>2015-09-23T12:22:23Z</time>
      </trkpt>
      <trkpt lat="43.49001" lon="6.07448">
        <ele>158.8</ele>
        <time>2015-09-23T12:22:29Z</time>
      </trkpt>
      <trkpt lat="43.49008" lon="6.07441">
        <ele>159.1</ele>
        <time>2015-09-23T12:22:36Z</time>
      </trkpt>
      <trkpt lat="43.49013" lon="6.07434">
        <ele>159.5</ele>
        <time>2015-09-23T12:22:42Z</time>
      </trkpt>
      <trkpt lat="43.4902" lon="6.07427">
        <ele>158.8</ele>
        <time>2015-09-23T12:22:49Z</time>
      </trkpt>
      <trkpt lat="43.49026" lon="6.0742">
        <ele>159.6</ele>
        <time>2015-09-23T12:22:56Z</time>
      </trkpt>
      <trkpt lat="43.49033" lon="6.07413">
        <ele>159.4</ele>
        <time>2015-09-23T12:23:03Z</time>
      </trkpt>
      <trkpt lat="43.49033" lon="6.07411">
        <ele>159.9</ele>
        <time>2015-09-23T12:23:04Z</time>
      </trkpt>
      <trkpt lat="43.49045" lon="6.07398">
        <ele>160.2</ele>
        <time>2015-09-23T12:23:17Z</time>
      </trkpt>
      <trkpt lat="43.49052" lon="6.0739">
        <ele>159.7</ele>
        <time>2015-09-23T12:23:25Z</time>
      </trkpt>
      <trkpt lat="43.49058" lon="6.07384">
        <ele>160.4</ele>
        <time>2015-09-23T12:23:33Z</time>
      </trkpt>
      <trkpt lat="43.49065" lon="6.07378">
        <ele>161.1</ele>
        <time>2015-09-23T12:23:39Z</time>
      </trkpt>
      <trkpt lat="43.49073" lon="6.07372">
        <ele>161</ele>
        <time>2015-09-23T12:23:46Z</time>
      </trkpt>
      <trkpt lat="43.4908" lon="6.07367">
        <ele>162</ele>
        <time>2015-09-23T12:23:53Z</time>
      </trkpt>
      <trkpt lat="43.49087" lon="6.0736">
        <ele>161.7</ele>
        <time>2015-09-23T12:24:00Z</time>
      </trkpt>
      <trkpt lat="43.49093" lon="6.07354">
        <ele>162.6</ele>
        <time>2015-09-23T12:24:06Z</time>
      </trkpt>
      <trkpt lat="43.49094" lon="6.07353">
        <ele>162.5</ele>
        <time>2015-09-23T12:24:07Z</time>
      </trkpt>
      <trkpt lat="43.49105" lon="6.07337">
        <ele>161.4</ele>
        <time>2015-09-23T12:24:19Z</time>
      </trkpt>
      <trkpt lat="43.49111" lon="6.0733">
        <ele>162.4</ele>
        <time>2015-09-23T12:24:26Z</time>
      </trkpt>
      <trkpt lat="43.49116" lon="6.07321">
        <ele>162.2</ele>
        <time>2015-09-23T12:24:32Z</time>
      </trkpt>
      <trkpt lat="43.49122" lon="6.07312">
        <ele>163.2</ele>
        <time>2015-09-23T12:24:39Z</time>
      </trkpt>
      <trkpt lat="43.49128" lon="6.07303">
        <ele>162.6</ele>
        <time>2015-09-23T12:24:46Z</time>
      </trkpt>
      <trkpt lat="43.49133" lon="6.07295">
        <ele>162.5</ele>
        <time>2015-09-23T12:24:53Z</time>
      </trkpt>
      <trkpt lat="43.49139" lon="6.07286">
        <ele>163.5</ele>
        <time>2015-09-23T12:25:01Z</time>
      </trkpt>
      <trkpt lat="43.49145" lon="6.07278">
        <ele>163.5</ele>
        <time>2015-09-23T12:25:08Z</time>
      </trkpt>
      <trkpt lat="43.49146" lon="6.07277">
        <ele>163.7</ele>
        <time>2015-09-23T12:25:09Z</time>
      </trkpt>
      <trkpt lat="43.49159" lon="6.07262">
        <ele>164.4</ele>
        <time>2015-09-23T12:25:23Z</time>
      </trkpt>
      <trkpt lat="43.49165" lon="6.07254">
        <ele>164.8</ele>
        <time>2015-09-23T12:25:30Z</time>
      </trkpt>
      <trkpt lat="43.4917" lon="6.07246">
        <ele>165.8</ele>
        <time>2015-09-23T12:25:37Z</time>
      </trkpt>
      <trkpt lat="43.49177" lon="6.07239">
        <ele>165.7</ele>
        <time>2015-09-23T12:25:46Z</time>
      </trkpt>
      <trkpt lat="43.49182" lon="6.07229">
        <ele>166.5</ele>
        <time>2015-09-23T12:26:09Z</time>
      </trkpt>
      <trkpt lat="43.49182" lon="6.07229">
        <ele>166.2</ele>
        <time>2015-09-23T12:26:10Z</time>
      </trkpt>
      <trkpt lat="43.49188" lon="6.07219">
        <ele>168.8</ele>
        <time>2015-09-23T12:27:57Z</time>
      </trkpt>
      <trkpt lat="43.49201" lon="6.07212">
        <ele>171.3</ele>
        <time>2015-09-23T12:28:21Z</time>
      </trkpt>
      <trkpt lat="43.49209" lon="6.07212">
        <ele>171.6</ele>
        <time>2015-09-23T12:28:29Z</time>
      </trkpt>
      <trkpt lat="43.49216" lon="6.07206">
        <ele>171.4</ele>
        <time>2015-09-23T12:28:34Z</time>
      </trkpt>
      <trkpt lat="43.49224" lon="6.07204">
        <ele>172.5</ele>
        <time>2015-09-23T12:28:43Z</time>
      </trkpt>
      <trkpt lat="43.49232" lon="6.07205">
        <ele>171.6</ele>
        <time>2015-09-23T12:28:51Z</time>
      </trkpt>
      <trkpt lat="43.49241" lon="6.07207">
        <ele>171.1</ele>
        <time>2015-09-23T12:29:00Z</time>
      </trkpt>
      <trkpt lat="43.49242" lon="6.07208">
        <ele>171</ele>
        <time>2015-09-23T12:29:01Z</time>
      </trkpt>
      <trkpt lat="43.49257" lon="6.07216">
        <ele>171.5</ele>
        <time>2015-09-23T12:29:17Z</time>
      </trkpt>
      <trkpt lat="43.49266" lon="6.07214">
        <ele>170.2</ele>
        <time>2015-09-23T12:29:25Z</time>
      </trkpt>
      <trkpt lat="43.49273" lon="6.0721">
        <ele>170.1</ele>
        <time>2015-09-23T12:29:32Z</time>
      </trkpt>
      <trkpt lat="43.49281" lon="6.07207">
        <ele>170.2</ele>
        <time>2015-09-23T12:29:40Z</time>
      </trkpt>
      <trkpt lat="43.4929" lon="6.07206">
        <ele>169.4</ele>
        <time>2015-09-23T12:29:48Z</time>
      </trkpt>
      <trkpt lat="43.49297" lon="6.07208">
        <ele>170</ele>
        <time>2015-09-23T12:29:55Z</time>
      </trkpt>
      <trkpt lat="43.49305" lon="6.07212">
        <ele>171.4</ele>
        <time>2015-09-23T12:30:02Z</time>
      </trkpt>
      <trkpt lat="43.49306" lon="6.07213">
        <ele>171.1</ele>
        <time>2015-09-23T12:30:03Z</time>
      </trkpt>
      <trkpt lat="43.49321" lon="6.07222">
        <ele>170.5</ele>
        <time>2015-09-23T12:30:17Z</time>
      </trkpt>
      <trkpt lat="43.49329" lon="6.07227">
        <ele>170.5</ele>
        <time>2015-09-23T12:30:25Z</time>
      </trkpt>
      <trkpt lat="43.49337" lon="6.07232">
        <ele>170.2</ele>
        <time>2015-09-23T12:30:33Z</time>
      </trkpt>
      <trkpt lat="43.49343" lon="6.07237">
        <ele>169.2</ele>
        <time>2015-09-23T12:30:41Z</time>
      </trkpt>
      <trkpt lat="43.4935" lon="6.07243">
        <ele>171.1</ele>
        <time>2015-09-23T12:30:48Z</time>
      </trkpt>
      <trkpt lat="43.49358" lon="6.0725">
        <ele>170.7</ele>
        <time>2015-09-23T12:30:56Z</time>
      </trkpt>
      <trkpt lat="43.49366" lon="6.07255">
        <ele>171.2</ele>
        <time>2015-09-23T12:31:04Z</time>
      </trkpt>
      <trkpt lat="43.49366" lon="6.07256">
        <ele>170.8</ele>
        <time>2015-09-23T12:31:05Z</time>
      </trkpt>
      <trkpt lat="43.49382" lon="6.07264">
        <ele>171.4</ele>
        <time>2015-09-23T12:31:22Z</time>
      </trkpt>
      <trkpt lat="43.49389" lon="6.07268">
        <ele>172.2</ele>
        <time>2015-09-23T12:31:28Z</time>
      </trkpt>
      <trkpt lat="43.49397" lon="6.0727">
        <ele>172</ele>
        <time>2015-09-23T12:31:34Z</time>
      </trkpt>
      <trkpt lat="43.49405" lon="6.07273">
        <ele>171.8</ele>
        <time>2015-09-23T12:31:41Z</time>
      </trkpt>
      <trkpt lat="43.49414" lon="6.07276">
        <ele>173.7</ele>
        <time>2015-09-23T12:31:49Z</time>
      </trkpt>
      <trkpt lat="43.49422" lon="6.07279">
        <ele>173.2</ele>
        <time>2015-09-23T12:31:55Z</time>
      </trkpt>
      <trkpt lat="43.49429" lon="6.07284">
        <ele>172.5</ele>
        <time>2015-09-23T12:32:03Z</time>
      </trkpt>
      <trkpt lat="43.49437" lon="6.07289">
        <ele>173.1</ele>
        <time>2015-09-23T12:32:11Z</time>
      </trkpt>
      <trkpt lat="43.49438" lon="6.0729">
        <ele>172.8</ele>
        <time>2015-09-23T12:32:12Z</time>
      </trkpt>
      <trkpt lat="43.49453" lon="6.07295">
        <ele>170.9</ele>
        <time>2015-09-23T12:32:27Z</time>
      </trkpt>
      <trkpt lat="43.49461" lon="6.07295">
        <ele>171.4</ele>
        <time>2015-09-23T12:32:34Z</time>
      </trkpt>
      <trkpt lat="43.4947" lon="6.07292">
        <ele>171.6</ele>
        <time>2015-09-23T12:32:41Z</time>
      </trkpt>
      <trkpt lat="43.49477" lon="6.07288">
        <ele>171.6</ele>
        <time>2015-09-23T12:32:48Z</time>
      </trkpt>
      <trkpt lat="43.49484" lon="6.07283">
        <ele>172.1</ele>
        <time>2015-09-23T12:32:54Z</time>
      </trkpt>
      <trkpt lat="43.49492" lon="6.07279">
        <ele>171.3</ele>
        <time>2015-09-23T12:33:01Z</time>
      </trkpt>
      <trkpt lat="43.495" lon="6.07275">
        <ele>173.4</ele>
        <time>2015-09-23T12:33:09Z</time>
      </trkpt>
      <trkpt lat="43.49508" lon="6.07271">
        <ele>173.8</ele>
        <time>2015-09-23T12:33:17Z</time>
      </trkpt>
      <trkpt lat="43.49509" lon="6.0727">
        <ele>173.6</ele>
        <time>2015-09-23T12:33:18Z</time>
      </trkpt>
      <trkpt lat="43.49524" lon="6.07263">
        <ele>172.7</ele>
        <time>2015-09-23T12:33:31Z</time>
      </trkpt>
      <trkpt lat="43.49532" lon="6.07261">
        <ele>173</ele>
        <time>2015-09-23T12:33:40Z</time>
      </trkpt>
      <trkpt lat="43.49541" lon="6.07257">
        <ele>173.8</ele>
        <time>2015-09-23T12:33:48Z</time>
      </trkpt>
      <trkpt lat="43.49549" lon="6.07254">
        <ele>172.8</ele>
        <time>2015-09-23T12:33:56Z</time>
      </trkpt>
      <trkpt lat="43.49557" lon="6.07249">
        <ele>172.4</ele>
        <time>2015-09-23T12:34:03Z</time>
      </trkpt>
      <trkpt lat="43.49563" lon="6.07242">
        <ele>172.8</ele>
        <time>2015-09-23T12:34:10Z</time>
      </trkpt>
      <trkpt lat="43.49567" lon="6.07232">
        <ele>172.3</ele>
        <time>2015-09-23T12:34:15Z</time>
      </trkpt>
      <trkpt lat="43.49568" lon="6.07222">
        <ele>171.6</ele>
        <time>2015-09-23T12:34:21Z</time>
      </trkpt>
      <trkpt lat="43.49568" lon="6.0722">
        <ele>171.5</ele>
        <time>2015-09-23T12:34:22Z</time>
      </trkpt>
      <trkpt lat="43.49567" lon="6.07199">
        <ele>171.1</ele>
        <time>2015-09-23T12:34:34Z</time>
      </trkpt>
      <trkpt lat="43.49566" lon="6.07187">
        <ele>170.1</ele>
        <time>2015-09-23T12:34:41Z</time>
      </trkpt>
      <trkpt lat="43.49564" lon="6.07176">
        <ele>169.7</ele>
        <time>2015-09-23T12:34:48Z</time>
      </trkpt>
      <trkpt lat="43.49563" lon="6.07165">
        <ele>169.3</ele>
        <time>2015-09-23T12:34:55Z</time>
      </trkpt>
      <trkpt lat="43.49561" lon="6.07154">
        <ele>169.5</ele>
        <time>2015-09-23T12:35:02Z</time>
      </trkpt>
      <trkpt lat="43.4956" lon="6.07143">
        <ele>169.4</ele>
        <time>2015-09-23T12:35:09Z</time>
      </trkpt>
      <trkpt lat="43.49558" lon="6.07132">
        <ele>171.5</ele>
        <time>2015-09-23T12:35:16Z</time>
      </trkpt>
      <trkpt lat="43.49555" lon="6.0712">
        <ele>171</ele>
        <time>2015-09-23T12:35:23Z</time>
      </trkpt>
      <trkpt lat="43.49555" lon="6.07119">
        <ele>170.5</ele>
        <time>2015-09-23T12:35:24Z</time>
      </trkpt>
      <trkpt lat="43.4955" lon="6.07097">
        <ele>169.7</ele>
        <time>2015-09-23T12:35:37Z</time>
      </trkpt>
      <trkpt lat="43.49547" lon="6.07086">
        <ele>171.1</ele>
        <time>2015-09-23T12:35:44Z</time>
      </trkpt>
      <trkpt lat="43.49544" lon="6.07075">
        <ele>171.5</ele>
        <time>2015-09-23T12:35:51Z</time>
      </trkpt>
      <trkpt lat="43.49542" lon="6.07065">
        <ele>171.9</ele>
        <time>2015-09-23T12:35:58Z</time>
      </trkpt>
      <trkpt lat="43.49539" lon="6.07054">
        <ele>171.2</ele>
        <time>2015-09-23T12:36:05Z</time>
      </trkpt>
      <trkpt lat="43.49537" lon="6.07044">
        <ele>171.2</ele>
        <time>2015-09-23T12:36:12Z</time>
      </trkpt>
      <trkpt lat="43.49534" lon="6.07034">
        <ele>172.6</ele>
        <time>2015-09-23T12:36:19Z</time>
      </trkpt>
      <trkpt lat="43.49532" lon="6.07022">
        <ele>173.3</ele>
        <time>2015-09-23T12:36:27Z</time>
      </trkpt>
      <trkpt lat="43.49531" lon="6.0702">
        <ele>173.3</ele>
        <time>2015-09-23T12:36:28Z</time>
      </trkpt>
      <trkpt lat="43.49525" lon="6.07001">
        <ele>173.7</ele>
        <time>2015-09-23T12:36:42Z</time>
      </trkpt>
      <trkpt lat="43.49521" lon="6.0699">
        <ele>173.7</ele>
        <time>2015-09-23T12:36:50Z</time>
      </trkpt>
      <trkpt lat="43.49518" lon="6.0698">
        <ele>172.5</ele>
        <time>2015-09-23T12:36:56Z</time>
      </trkpt>
      <trkpt lat="43.49517" lon="6.06969">
        <ele>173.1</ele>
        <time>2015-09-23T12:37:02Z</time>
      </trkpt>
      <trkpt lat="43.49516" lon="6.06958">
        <ele>172.3</ele>
        <time>2015-09-23T12:37:08Z</time>
      </trkpt>
      <trkpt lat="43.49514" lon="6.06947">
        <ele>173.4</ele>
        <time>2015-09-23T12:37:15Z</time>
      </trkpt>
      <trkpt lat="43.49513" lon="6.06936">
        <ele>173.6</ele>
        <time>2015-09-23T12:37:22Z</time>
      </trkpt>
      <trkpt lat="43.49513" lon="6.06923">
        <ele>174.6</ele>
        <time>2015-09-23T12:37:30Z</time>
      </trkpt>
      <trkpt lat="43.49513" lon="6.06922">
        <ele>174.6</ele>
        <time>2015-09-23T12:37:31Z</time>
      </trkpt>
      <trkpt lat="43.49511" lon="6.06901">
        <ele>175.4</ele>
        <time>2015-09-23T12:37:44Z</time>
      </trkpt>
      <trkpt lat="43.4951" lon="6.0689">
        <ele>175.7</ele>
        <time>2015-09-23T12:37:51Z</time>
      </trkpt>
      <trkpt lat="43.4951" lon="6.06878">
        <ele>175.2</ele>
        <time>2015-09-23T12:37:59Z</time>
      </trkpt>
      <trkpt lat="43.49511" lon="6.06866">
        <ele>175.3</ele>
        <time>2015-09-23T12:38:06Z</time>
      </trkpt>
      <trkpt lat="43.4951" lon="6.06855">
        <ele>174.9</ele>
        <time>2015-09-23T12:38:13Z</time>
      </trkpt>
      <trkpt lat="43.4951" lon="6.06844">
        <ele>175.3</ele>
        <time>2015-09-23T12:38:20Z</time>
      </trkpt>
      <trkpt lat="43.4951" lon="6.06833">
        <ele>176</ele>
        <time>2015-09-23T12:38:27Z</time>
      </trkpt>
      <trkpt lat="43.49511" lon="6.06822">
        <ele>174.6</ele>
        <time>2015-09-23T12:38:34Z</time>
      </trkpt>
      <trkpt lat="43.49511" lon="6.06821">
        <ele>175.1</ele>
        <time>2015-09-23T12:38:35Z</time>
      </trkpt>
      <trkpt lat="43.49515" lon="6.068">
        <ele>176.1</ele>
        <time>2015-09-23T12:38:49Z</time>
      </trkpt>
      <trkpt lat="43.49517" lon="6.06789">
        <ele>175</ele>
        <time>2015-09-23T12:38:57Z</time>
      </trkpt>
      <trkpt lat="43.49521" lon="6.06779">
        <ele>175.2</ele>
        <time>2015-09-23T12:39:05Z</time>
      </trkpt>
      <trkpt lat="43.49528" lon="6.06772">
        <ele>175.5</ele>
        <time>2015-09-23T12:39:13Z</time>
      </trkpt>
      <trkpt lat="43.49535" lon="6.06765">
        <ele>176.6</ele>
        <time>2015-09-23T12:39:20Z</time>
      </trkpt>
      <trkpt lat="43.49542" lon="6.06758">
        <ele>176.5</ele>
        <time>2015-09-23T12:39:27Z</time>
      </trkpt>
      <trkpt lat="43.49549" lon="6.06751">
        <ele>176.3</ele>
        <time>2015-09-23T12:39:36Z</time>
      </trkpt>
      <trkpt lat="43.4955" lon="6.06751">
        <ele>176</ele>
        <time>2015-09-23T12:39:37Z</time>
      </trkpt>
      <trkpt lat="43.49559" lon="6.06736">
        <ele>176.3</ele>
        <time>2015-09-23T12:39:47Z</time>
      </trkpt>
      <trkpt lat="43.49564" lon="6.06725">
        <ele>175.8</ele>
        <time>2015-09-23T12:39:54Z</time>
      </trkpt>
      <trkpt lat="43.49566" lon="6.06714">
        <ele>176.6</ele>
        <time>2015-09-23T12:40:01Z</time>
      </trkpt>
      <trkpt lat="43.49566" lon="6.06702">
        <ele>177</ele>
        <time>2015-09-23T12:40:08Z</time>
      </trkpt>
      <trkpt lat="43.49567" lon="6.0669">
        <ele>177.3</ele>
        <time>2015-09-23T12:40:15Z</time>
      </trkpt>
      <trkpt lat="43.49567" lon="6.06679">
        <ele>178</ele>
        <time>2015-09-23T12:40:22Z</time>
      </trkpt>
      <trkpt lat="43.49568" lon="6.06667">
        <ele>177.5</ele>
        <time>2015-09-23T12:40:29Z</time>
      </trkpt>
      <trkpt lat="43.49568" lon="6.06656">
        <ele>178.3</ele>
        <time>2015-09-23T12:40:36Z</time>
      </trkpt>
      <trkpt lat="43.49569" lon="6.06644">
        <ele>178</ele>
        <time>2015-09-23T12:40:43Z</time>
      </trkpt>
      <trkpt lat="43.49569" lon="6.06643">
        <ele>178</ele>
        <time>2015-09-23T12:40:44Z</time>
      </trkpt>
      <trkpt lat="43.49569" lon="6.06621">
        <ele>178.3</ele>
        <time>2015-09-23T12:40:57Z</time>
      </trkpt>
      <trkpt lat="43.49568" lon="6.06609">
        <ele>178.4</ele>
        <time>2015-09-23T12:41:04Z</time>
      </trkpt>
      <trkpt lat="43.49567" lon="6.06597">
        <ele>179.5</ele>
        <time>2015-09-23T12:41:11Z</time>
      </trkpt>
      <trkpt lat="43.49565" lon="6.06587">
        <ele>178.7</ele>
        <time>2015-09-23T12:41:17Z</time>
      </trkpt>
      <trkpt lat="43.49564" lon="6.06576">
        <ele>179.2</ele>
        <time>2015-09-23T12:41:23Z</time>
      </trkpt>
      <trkpt lat="43.49562" lon="6.06564">
        <ele>179.9</ele>
        <time>2015-09-23T12:41:30Z</time>
      </trkpt>
      <trkpt lat="43.49561" lon="6.06552">
        <ele>179</ele>
        <time>2015-09-23T12:41:37Z</time>
      </trkpt>
      <trkpt lat="43.4956" lon="6.0654">
        <ele>178.8</ele>
        <time>2015-09-23T12:41:44Z</time>
      </trkpt>
      <trkpt lat="43.4956" lon="6.06539">
        <ele>178.8</ele>
        <time>2015-09-23T12:41:45Z</time>
      </trkpt>
      <trkpt lat="43.49559" lon="6.06517">
        <ele>179.6</ele>
        <time>2015-09-23T12:41:58Z</time>
      </trkpt>
      <trkpt lat="43.49558" lon="6.06506">
        <ele>179.1</ele>
        <time>2015-09-23T12:42:04Z</time>
      </trkpt>
      <trkpt lat="43.49555" lon="6.06496">
        <ele>179.4</ele>
        <time>2015-09-23T12:42:10Z</time>
      </trkpt>
      <trkpt lat="43.49553" lon="6.06484">
        <ele>179.8</ele>
        <time>2015-09-23T12:42:17Z</time>
      </trkpt>
      <trkpt lat="43.49552" lon="6.06472">
        <ele>179.8</ele>
        <time>2015-09-23T12:42:24Z</time>
      </trkpt>
      <trkpt lat="43.49552" lon="6.0646">
        <ele>180.5</ele>
        <time>2015-09-23T12:42:31Z</time>
      </trkpt>
      <trkpt lat="43.49553" lon="6.06448">
        <ele>180.1</ele>
        <time>2015-09-23T12:42:38Z</time>
      </trkpt>
      <trkpt lat="43.49554" lon="6.06437">
        <ele>181</ele>
        <time>2015-09-23T12:42:45Z</time>
      </trkpt>
      <trkpt lat="43.49554" lon="6.06435">
        <ele>181.1</ele>
        <time>2015-09-23T12:42:46Z</time>
      </trkpt>
      <trkpt lat="43.49556" lon="6.06415">
        <ele>179.6</ele>
        <time>2015-09-23T12:42:57Z</time>
      </trkpt>
      <trkpt lat="43.49557" lon="6.06404">
        <ele>179.3</ele>
        <time>2015-09-23T12:43:04Z</time>
      </trkpt>
      <trkpt lat="43.49558" lon="6.06392">
        <ele>179.7</ele>
        <time>2015-09-23T12:43:11Z</time>
      </trkpt>
      <trkpt lat="43.49559" lon="6.06381">
        <ele>178.9</ele>
        <time>2015-09-23T12:43:18Z</time>
      </trkpt>
      <trkpt lat="43.4956" lon="6.06369">
        <ele>179.3</ele>
        <time>2015-09-23T12:43:25Z</time>
      </trkpt>
      <trkpt lat="43.49562" lon="6.06358">
        <ele>180.1</ele>
        <time>2015-09-23T12:43:32Z</time>
      </trkpt>
      <trkpt lat="43.49562" lon="6.06346">
        <ele>179.7</ele>
        <time>2015-09-23T12:43:38Z</time>
      </trkpt>
      <trkpt lat="43.49561" lon="6.06335">
        <ele>180.5</ele>
        <time>2015-09-23T12:43:45Z</time>
      </trkpt>
      <trkpt lat="43.49561" lon="6.06323">
        <ele>180.7</ele>
        <time>2015-09-23T12:43:51Z</time>
      </trkpt>
      <trkpt lat="43.49561" lon="6.06322">
        <ele>180.6</ele>
        <time>2015-09-23T12:43:52Z</time>
      </trkpt>
      <trkpt lat="43.49557" lon="6.06301">
        <ele>178.9</ele>
        <time>2015-09-23T12:44:05Z</time>
      </trkpt>
      <trkpt lat="43.49555" lon="6.06291">
        <ele>179.8</ele>
        <time>2015-09-23T12:44:11Z</time>
      </trkpt>
      <trkpt lat="43.49552" lon="6.0628">
        <ele>179.8</ele>
        <time>2015-09-23T12:44:18Z</time>
      </trkpt>
      <trkpt lat="43.4955" lon="6.0627">
        <ele>180</ele>
        <time>2015-09-23T12:44:24Z</time>
      </trkpt>
      <trkpt lat="43.49546" lon="6.06259">
        <ele>180.5</ele>
        <time>2015-09-23T12:44:32Z</time>
      </trkpt>
      <trkpt lat="43.4954" lon="6.06252">
        <ele>181.4</ele>
        <time>2015-09-23T12:44:38Z</time>
      </trkpt>
      <trkpt lat="43.49535" lon="6.06242">
        <ele>181.3</ele>
        <time>2015-09-23T12:44:45Z</time>
      </trkpt>
      <trkpt lat="43.4953" lon="6.06232">
        <ele>182</ele>
        <time>2015-09-23T12:44:53Z</time>
      </trkpt>
      <trkpt lat="43.49529" lon="6.06231">
        <ele>181.9</ele>
        <time>2015-09-23T12:44:54Z</time>
      </trkpt>
      <trkpt lat="43.49521" lon="6.06212">
        <ele>182.4</ele>
        <time>2015-09-23T12:45:11Z</time>
      </trkpt>
      <trkpt lat="43.49519" lon="6.06201">
        <ele>183.9</ele>
        <time>2015-09-23T12:45:19Z</time>
      </trkpt>
      <trkpt lat="43.49515" lon="6.06191">
        <ele>184.5</ele>
        <time>2015-09-23T12:45:27Z</time>
      </trkpt>
      <trkpt lat="43.4951" lon="6.06183">
        <ele>184</ele>
        <time>2015-09-23T12:45:33Z</time>
      </trkpt>
      <trkpt lat="43.49507" lon="6.06173">
        <ele>183.9</ele>
        <time>2015-09-23T12:45:40Z</time>
      </trkpt>
      <trkpt lat="43.49504" lon="6.06161">
        <ele>183.6</ele>
        <time>2015-09-23T12:45:47Z</time>
      </trkpt>
      <trkpt lat="43.49502" lon="6.0615">
        <ele>182.8</ele>
        <time>2015-09-23T12:45:55Z</time>
      </trkpt>
      <trkpt lat="43.49502" lon="6.06148">
        <ele>182.9</ele>
        <time>2015-09-23T12:45:56Z</time>
      </trkpt>
      <trkpt lat="43.49502" lon="6.06126">
        <ele>183.1</ele>
        <time>2015-09-23T12:46:08Z</time>
      </trkpt>
      <trkpt lat="43.495" lon="6.06114">
        <ele>183</ele>
        <time>2015-09-23T12:46:15Z</time>
      </trkpt>
      <trkpt lat="43.49502" lon="6.06105">
        <ele>182</ele>
        <time>2015-09-23T12:46:22Z</time>
      </trkpt>
      <trkpt lat="43.49504" lon="6.06093">
        <ele>183.5</ele>
        <time>2015-09-23T12:46:28Z</time>
      </trkpt>
      <trkpt lat="43.49505" lon="6.06082">
        <ele>183.6</ele>
        <time>2015-09-23T12:46:35Z</time>
      </trkpt>
      <trkpt lat="43.49506" lon="6.0607">
        <ele>184.2</ele>
        <time>2015-09-23T12:46:43Z</time>
      </trkpt>
      <trkpt lat="43.49507" lon="6.06059">
        <ele>182.5</ele>
        <time>2015-09-23T12:46:50Z</time>
      </trkpt>
      <trkpt lat="43.49503" lon="6.06048">
        <ele>182.1</ele>
        <time>2015-09-23T12:46:56Z</time>
      </trkpt>
      <trkpt lat="43.49503" lon="6.06046">
        <ele>182</ele>
        <time>2015-09-23T12:46:57Z</time>
      </trkpt>
      <trkpt lat="43.49492" lon="6.06031">
        <ele>182.8</ele>
        <time>2015-09-23T12:47:10Z</time>
      </trkpt>
      <trkpt lat="43.49489" lon="6.06021">
        <ele>182.1</ele>
        <time>2015-09-23T12:47:18Z</time>
      </trkpt>
      <trkpt lat="43.49493" lon="6.06011">
        <ele>184</ele>
        <time>2015-09-23T12:47:23Z</time>
      </trkpt>
      <trkpt lat="43.49498" lon="6.06001">
        <ele>184.9</ele>
        <time>2015-09-23T12:47:28Z</time>
      </trkpt>
      <trkpt lat="43.49505" lon="6.05993">
        <ele>185.7</ele>
        <time>2015-09-23T12:47:34Z</time>
      </trkpt>
      <trkpt lat="43.4951" lon="6.05984">
        <ele>183.8</ele>
        <time>2015-09-23T12:47:40Z</time>
      </trkpt>
      <trkpt lat="43.49511" lon="6.05973">
        <ele>184.6</ele>
        <time>2015-09-23T12:47:49Z</time>
      </trkpt>
      <trkpt lat="43.4951" lon="6.05962">
        <ele>183.8</ele>
        <time>2015-09-23T12:47:56Z</time>
      </trkpt>
      <trkpt lat="43.49509" lon="6.0595">
        <ele>183.2</ele>
        <time>2015-09-23T12:48:06Z</time>
      </trkpt>
      <trkpt lat="43.4951" lon="6.05948">
        <ele>183.4</ele>
        <time>2015-09-23T12:48:07Z</time>
      </trkpt>
      <trkpt lat="43.49516" lon="6.05928">
        <ele>183.4</ele>
        <time>2015-09-23T12:48:18Z</time>
      </trkpt>
      <trkpt lat="43.49519" lon="6.05917">
        <ele>183.9</ele>
        <time>2015-09-23T12:48:24Z</time>
      </trkpt>
      <trkpt lat="43.49521" lon="6.05905">
        <ele>182.9</ele>
        <time>2015-09-23T12:48:30Z</time>
      </trkpt>
      <trkpt lat="43.49522" lon="6.05894">
        <ele>182.6</ele>
        <time>2015-09-23T12:48:36Z</time>
      </trkpt>
      <trkpt lat="43.49522" lon="6.05882">
        <ele>181.4</ele>
        <time>2015-09-23T12:48:43Z</time>
      </trkpt>
      <trkpt lat="43.49519" lon="6.05871">
        <ele>182.4</ele>
        <time>2015-09-23T12:48:50Z</time>
      </trkpt>
      <trkpt lat="43.49525" lon="6.05862">
        <ele>183.3</ele>
        <time>2015-09-23T12:48:57Z</time>
      </trkpt>
      <trkpt lat="43.49525" lon="6.05847">
        <ele>183.7</ele>
        <time>2015-09-23T12:49:06Z</time>
      </trkpt>
      <trkpt lat="43.49517" lon="6.05841">
        <ele>183.9</ele>
        <time>2015-09-23T12:49:12Z</time>
      </trkpt>
      <trkpt lat="43.49517" lon="6.05841">
        <ele>183.4</ele>
        <time>2015-09-23T12:49:13Z</time>
      </trkpt>
      <trkpt lat="43.49525" lon="6.05823">
        <ele>183</ele>
        <time>2015-09-23T12:49:23Z</time>
      </trkpt>
      <trkpt lat="43.49522" lon="6.05813">
        <ele>182.6</ele>
        <time>2015-09-23T12:49:29Z</time>
      </trkpt>
      <trkpt lat="43.49524" lon="6.05801">
        <ele>182.5</ele>
        <time>2015-09-23T12:49:37Z</time>
      </trkpt>
      <trkpt lat="43.49526" lon="6.05791">
        <ele>182.2</ele>
        <time>2015-09-23T12:49:55Z</time>
      </trkpt>
      <trkpt lat="43.49531" lon="6.05782">
        <ele>182.8</ele>
        <time>2015-09-23T12:49:59Z</time>
      </trkpt>
      <trkpt lat="43.49536" lon="6.05772">
        <ele>183.1</ele>
        <time>2015-09-23T12:50:04Z</time>
      </trkpt>
      <trkpt lat="43.49541" lon="6.05763">
        <ele>183.4</ele>
        <time>2015-09-23T12:50:08Z</time>
      </trkpt>
      <trkpt lat="43.49545" lon="6.05754">
        <ele>183.5</ele>
        <time>2015-09-23T12:50:11Z</time>
      </trkpt>
      <trkpt lat="43.49552" lon="6.05747">
        <ele>182.2</ele>
        <time>2015-09-23T12:50:16Z</time>
      </trkpt>
      <trkpt lat="43.49553" lon="6.05745">
        <ele>182.5</ele>
        <time>2015-09-23T12:50:17Z</time>
      </trkpt>
      <trkpt lat="43.49562" lon="6.05732">
        <ele>183.6</ele>
        <time>2015-09-23T12:50:24Z</time>
      </trkpt>
      <trkpt lat="43.49559" lon="6.05721">
        <ele>183.8</ele>
        <time>2015-09-23T12:50:36Z</time>
      </trkpt>
      <trkpt lat="43.49563" lon="6.0571">
        <ele>184.4</ele>
        <time>2015-09-23T12:50:43Z</time>
      </trkpt>
      <trkpt lat="43.49568" lon="6.05701">
        <ele>183.9</ele>
        <time>2015-09-23T12:50:50Z</time>
      </trkpt>
      <trkpt lat="43.49573" lon="6.0569">
        <ele>183</ele>
        <time>2015-09-23T12:50:56Z</time>
      </trkpt>
      <trkpt lat="43.49575" lon="6.05678">
        <ele>184</ele>
        <time>2015-09-23T12:51:09Z</time>
      </trkpt>
      <trkpt lat="43.49578" lon="6.05668">
        <ele>183.2</ele>
        <time>2015-09-23T12:51:14Z</time>
      </trkpt>
      <trkpt lat="43.49581" lon="6.05656">
        <ele>183.8</ele>
        <time>2015-09-23T12:51:20Z</time>
      </trkpt>
      <trkpt lat="43.49581" lon="6.05654">
        <ele>184.3</ele>
        <time>2015-09-23T12:51:21Z</time>
      </trkpt>
      <trkpt lat="43.49588" lon="6.05638">
        <ele>180.8</ele>
        <time>2015-09-23T12:51:53Z</time>
      </trkpt>
      <trkpt lat="43.49595" lon="6.05645">
        <ele>180.3</ele>
        <time>2015-09-23T12:53:21Z</time>
      </trkpt>
      <trkpt lat="43.49596" lon="6.05645">
        <ele>180.4</ele>
        <time>2015-09-23T12:53:22Z</time>
      </trkpt>
      <trkpt lat="43.49592" lon="6.05629">
        <ele>180.6</ele>
        <time>2015-09-23T12:54:07Z</time>
      </trkpt>
      <trkpt lat="43.49583" lon="6.05629">
        <ele>182.2</ele>
        <time>2015-09-23T12:54:14Z</time>
      </trkpt>
      <trkpt lat="43.4959" lon="6.05624">
        <ele>183.2</ele>
        <time>2015-09-23T12:54:30Z</time>
      </trkpt>
      <trkpt lat="43.49593" lon="6.05624">
        <ele>183.4</ele>
        <time>2015-09-23T12:54:31Z</time>
      </trkpt>
      <trkpt lat="43.49607" lon="6.05619">
        <ele>183.7</ele>
        <time>2015-09-23T12:54:40Z</time>
      </trkpt>
      <trkpt lat="43.49614" lon="6.05612">
        <ele>184.7</ele>
        <time>2015-09-23T12:54:52Z</time>
      </trkpt>
      <trkpt lat="43.49608" lon="6.05605">
        <ele>184.7</ele>
        <time>2015-09-23T12:55:06Z</time>
      </trkpt>
      <trkpt lat="43.496" lon="6.05602">
        <ele>184.6</ele>
        <time>2015-09-23T12:55:11Z</time>
      </trkpt>
      <trkpt lat="43.49592" lon="6.05608">
        <ele>185.5</ele>
        <time>2015-09-23T12:59:23Z</time>
      </trkpt>
      <trkpt lat="43.49591" lon="6.05609">
        <ele>185.9</ele>
        <time>2015-09-23T12:59:24Z</time>
      </trkpt>
      <trkpt lat="43.4958" lon="6.05623">
        <ele>185.5</ele>
        <time>2015-09-23T12:59:37Z</time>
      </trkpt>
      <trkpt lat="43.49574" lon="6.05629">
        <ele>185.6</ele>
        <time>2015-09-23T12:59:43Z</time>
      </trkpt>
      <trkpt lat="43.49572" lon="6.05641">
        <ele>184.7</ele>
        <time>2015-09-23T12:59:52Z</time>
      </trkpt>
      <trkpt lat="43.49565" lon="6.05646">
        <ele>185.1</ele>
        <time>2015-09-23T12:59:58Z</time>
      </trkpt>
      <trkpt lat="43.49561" lon="6.05656">
        <ele>185</ele>
        <time>2015-09-23T13:00:08Z</time>
      </trkpt>
      <trkpt lat="43.49555" lon="6.05663">
        <ele>184.6</ele>
        <time>2015-09-23T13:00:11Z</time>
      </trkpt>
      <trkpt lat="43.49555" lon="6.05675">
        <ele>184.7</ele>
        <time>2015-09-23T13:00:19Z</time>
      </trkpt>
      <trkpt lat="43.49561" lon="6.05685">
        <ele>184.9</ele>
        <time>2015-09-23T13:00:28Z</time>
      </trkpt>
      <trkpt lat="43.49562" lon="6.05685">
        <ele>184.4</ele>
        <time>2015-09-23T13:00:29Z</time>
      </trkpt>
      <trkpt lat="43.49554" lon="6.05697">
        <ele>189.7</ele>
        <time>2015-09-23T13:01:06Z</time>
      </trkpt>
      <trkpt lat="43.49546" lon="6.05697">
        <ele>191.5</ele>
        <time>2015-09-23T13:01:28Z</time>
      </trkpt>
      <trkpt lat="43.4954" lon="6.057">
        <ele>191.8</ele>
        <time>2015-09-23T13:01:33Z</time>
      </trkpt>
      <trkpt lat="43.49537" lon="6.05699">
        <ele>191.7</ele>
        <time>2015-09-23T13:01:34Z</time>
      </trkpt>
      <trkpt lat="43.49524" lon="6.05702">
        <ele>195.7</ele>
        <time>2015-09-23T13:01:53Z</time>
      </trkpt>
      <trkpt lat="43.49517" lon="6.05708">
        <ele>197.2</ele>
        <time>2015-09-23T13:02:09Z</time>
      </trkpt>
      <trkpt lat="43.49511" lon="6.05714">
        <ele>196.8</ele>
        <time>2015-09-23T13:02:18Z</time>
      </trkpt>
      <trkpt lat="43.49503" lon="6.05711">
        <ele>196.3</ele>
        <time>2015-09-23T13:02:45Z</time>
      </trkpt>
      <trkpt lat="43.49502" lon="6.05711">
        <ele>196.3</ele>
        <time>2015-09-23T13:02:46Z</time>
      </trkpt>
      <trkpt lat="43.4949" lon="6.05723">
        <ele>199.4</ele>
        <time>2015-09-23T13:03:08Z</time>
      </trkpt>
      <trkpt lat="43.49482" lon="6.05727">
        <ele>202.1</ele>
        <time>2015-09-23T13:03:16Z</time>
      </trkpt>
      <trkpt lat="43.49475" lon="6.05732">
        <ele>202.8</ele>
        <time>2015-09-23T13:03:25Z</time>
      </trkpt>
      <trkpt lat="43.49467" lon="6.05738">
        <ele>201.5</ele>
        <time>2015-09-23T13:03:40Z</time>
      </trkpt>
      <trkpt lat="43.49463" lon="6.05748">
        <ele>203.9</ele>
        <time>2015-09-23T13:03:58Z</time>
      </trkpt>
      <trkpt lat="43.49463" lon="6.05749">
        <ele>204.3</ele>
        <time>2015-09-23T13:03:59Z</time>
      </trkpt>
      <trkpt lat="43.49448" lon="6.05753">
        <ele>204.9</ele>
        <time>2015-09-23T13:04:26Z</time>
      </trkpt>
      <trkpt lat="43.49456" lon="6.05747">
        <ele>206.6</ele>
        <time>2015-09-23T13:04:46Z</time>
      </trkpt>
      <trkpt lat="43.49456" lon="6.05735">
        <ele>207.8</ele>
        <time>2015-09-23T13:05:05Z</time>
      </trkpt>
      <trkpt lat="43.49455" lon="6.05734">
        <ele>207.8</ele>
        <time>2015-09-23T13:05:06Z</time>
      </trkpt>
      <trkpt lat="43.49444" lon="6.0572">
        <ele>209.8</ele>
        <time>2015-09-23T13:05:27Z</time>
      </trkpt>
      <trkpt lat="43.49448" lon="6.05709">
        <ele>211.3</ele>
        <time>2015-09-23T13:05:43Z</time>
      </trkpt>
      <trkpt lat="43.49449" lon="6.05697">
        <ele>211.5</ele>
        <time>2015-09-23T13:05:55Z</time>
      </trkpt>
      <trkpt lat="43.49445" lon="6.05687">
        <ele>213</ele>
        <time>2015-09-23T13:06:04Z</time>
      </trkpt>
      <trkpt lat="43.49445" lon="6.05675">
        <ele>214.1</ele>
        <time>2015-09-23T13:06:17Z</time>
      </trkpt>
      <trkpt lat="43.49445" lon="6.05674">
        <ele>214.8</ele>
        <time>2015-09-23T13:06:18Z</time>
      </trkpt>
      <trkpt lat="43.49449" lon="6.05654">
        <ele>217.8</ele>
        <time>2015-09-23T13:06:43Z</time>
      </trkpt>
      <trkpt lat="43.49446" lon="6.05643">
        <ele>219.2</ele>
        <time>2015-09-23T13:06:52Z</time>
      </trkpt>
      <trkpt lat="43.49441" lon="6.05633">
        <ele>221.5</ele>
        <time>2015-09-23T13:07:04Z</time>
      </trkpt>
      <trkpt lat="43.49438" lon="6.05622">
        <ele>222.1</ele>
        <time>2015-09-23T13:07:12Z</time>
      </trkpt>
      <trkpt lat="43.49441" lon="6.05611">
        <ele>223</ele>
        <time>2015-09-23T13:07:23Z</time>
      </trkpt>
      <trkpt lat="43.49442" lon="6.0561">
        <ele>223.6</ele>
        <time>2015-09-23T13:07:24Z</time>
      </trkpt>
      <trkpt lat="43.49439" lon="6.05587">
        <ele>227.7</ele>
        <time>2015-09-23T13:07:51Z</time>
      </trkpt>
      <trkpt lat="43.49435" lon="6.05576">
        <ele>229.1</ele>
        <time>2015-09-23T13:08:02Z</time>
      </trkpt>
      <trkpt lat="43.49439" lon="6.05566">
        <ele>230.1</ele>
        <time>2015-09-23T13:08:14Z</time>
      </trkpt>
      <trkpt lat="43.49434" lon="6.05556">
        <ele>233.3</ele>
        <time>2015-09-23T13:08:31Z</time>
      </trkpt>
      <trkpt lat="43.49434" lon="6.05555">
        <ele>233.2</ele>
        <time>2015-09-23T13:08:32Z</time>
      </trkpt>
      <trkpt lat="43.49447" lon="6.05539">
        <ele>235.2</ele>
        <time>2015-09-23T13:09:20Z</time>
      </trkpt>
      <trkpt lat="43.49445" lon="6.05527">
        <ele>238.2</ele>
        <time>2015-09-23T13:09:40Z</time>
      </trkpt>
      <trkpt lat="43.49444" lon="6.05527">
        <ele>238.6</ele>
        <time>2015-09-23T13:09:41Z</time>
      </trkpt>
      <trkpt lat="43.49437" lon="6.05511">
        <ele>241</ele>
        <time>2015-09-23T13:10:13Z</time>
      </trkpt>
      <trkpt lat="43.49447" lon="6.05514">
        <ele>241</ele>
        <time>2015-09-23T13:11:34Z</time>
      </trkpt>
      <trkpt lat="43.49449" lon="6.05515">
        <ele>242</ele>
        <time>2015-09-23T13:11:36Z</time>
      </trkpt>
      <trkpt lat="43.4944" lon="6.05511">
        <ele>240.3</ele>
        <time>2015-09-23T13:12:23Z</time>
      </trkpt>
      <trkpt lat="43.49432" lon="6.05512">
        <ele>238.8</ele>
        <time>2015-09-23T13:15:52Z</time>
      </trkpt>
      <trkpt lat="43.49431" lon="6.05512">
        <ele>239.2</ele>
        <time>2015-09-23T13:15:53Z</time>
      </trkpt>
      <trkpt lat="43.49443" lon="6.05521">
        <ele>238.1</ele>
        <time>2015-09-23T13:17:49Z</time>
      </trkpt>
      <trkpt lat="43.49445" lon="6.05521">
        <ele>237.9</ele>
        <time>2015-09-23T13:17:50Z</time>
      </trkpt>
      <trkpt lat="43.49445" lon="6.05524">
        <ele>238.1</ele>
        <time>2015-09-23T13:18:08Z</time>
      </trkpt>
      <trkpt lat="43.49438" lon="6.05525">
        <ele>238.7</ele>
        <time>2015-09-23T13:18:12Z</time>
      </trkpt>
      <trkpt lat="43.49429" lon="6.05523">
        <ele>238.7</ele>
        <time>2015-09-23T13:19:26Z</time>
      </trkpt>
      <trkpt lat="43.49429" lon="6.05523">
        <ele>238.8</ele>
        <time>2015-09-23T13:19:27Z</time>
      </trkpt>
      <trkpt lat="43.49434" lon="6.05535">
        <ele>233.5</ele>
        <time>2015-09-23T13:21:19Z</time>
      </trkpt>
      <trkpt lat="43.49434" lon="6.05536">
        <ele>233.2</ele>
        <time>2015-09-23T13:21:20Z</time>
      </trkpt>
      <trkpt lat="43.49429" lon="6.05554">
        <ele>230.9</ele>
        <time>2015-09-23T13:22:22Z</time>
      </trkpt>
      <trkpt lat="43.49429" lon="6.05555">
        <ele>231.3</ele>
        <time>2015-09-23T13:22:23Z</time>
      </trkpt>
      <trkpt lat="43.49429" lon="6.05578">
        <ele>226.3</ele>
        <time>2015-09-23T13:23:04Z</time>
      </trkpt>
      <trkpt lat="43.4943" lon="6.0559">
        <ele>225.6</ele>
        <time>2015-09-23T13:23:17Z</time>
      </trkpt>
      <trkpt lat="43.4943" lon="6.05601">
        <ele>223.8</ele>
        <time>2015-09-23T13:23:33Z</time>
      </trkpt>
      <trkpt lat="43.49429" lon="6.05603">
        <ele>223.5</ele>
        <time>2015-09-23T13:23:34Z</time>
      </trkpt>
      <trkpt lat="43.4943" lon="6.05624">
        <ele>220</ele>
        <time>2015-09-23T13:24:00Z</time>
      </trkpt>
      <trkpt lat="43.49432" lon="6.05636">
        <ele>219.1</ele>
        <time>2015-09-23T13:24:10Z</time>
      </trkpt>
      <trkpt lat="43.49434" lon="6.05648">
        <ele>216.4</ele>
        <time>2015-09-23T13:24:28Z</time>
      </trkpt>
      <trkpt lat="43.49434" lon="6.0566">
        <ele>215.8</ele>
        <time>2015-09-23T13:24:39Z</time>
      </trkpt>
      <trkpt lat="43.49434" lon="6.0566">
        <ele>215.4</ele>
        <time>2015-09-23T13:24:40Z</time>
      </trkpt>
      <trkpt lat="43.49442" lon="6.05679">
        <ele>213.3</ele>
        <time>2015-09-23T13:24:56Z</time>
      </trkpt>
      <trkpt lat="43.49441" lon="6.0569">
        <ele>212.2</ele>
        <time>2015-09-23T13:25:11Z</time>
      </trkpt>
      <trkpt lat="43.49444" lon="6.057">
        <ele>211.7</ele>
        <time>2015-09-23T13:25:20Z</time>
      </trkpt>
      <trkpt lat="43.49444" lon="6.05713">
        <ele>210.8</ele>
        <time>2015-09-23T13:25:30Z</time>
      </trkpt>
      <trkpt lat="43.49448" lon="6.05723">
        <ele>209.8</ele>
        <time>2015-09-23T13:25:46Z</time>
      </trkpt>
      <trkpt lat="43.49448" lon="6.05724">
        <ele>209.8</ele>
        <time>2015-09-23T13:25:47Z</time>
      </trkpt>
      <trkpt lat="43.49448" lon="6.05738">
        <ele>203</ele>
        <time>2015-09-23T13:26:34Z</time>
      </trkpt>
      <trkpt lat="43.49441" lon="6.05745">
        <ele>202.3</ele>
        <time>2015-09-23T13:26:43Z</time>
      </trkpt>
      <trkpt lat="43.49442" lon="6.05759">
        <ele>203.6</ele>
        <time>2015-09-23T13:26:54Z</time>
      </trkpt>
      <trkpt lat="43.49443" lon="6.0576">
        <ele>203.8</ele>
        <time>2015-09-23T13:26:55Z</time>
      </trkpt>
      <trkpt lat="43.49444" lon="6.05782">
        <ele>206.8</ele>
        <time>2015-09-23T13:27:16Z</time>
      </trkpt>
      <trkpt lat="43.49441" lon="6.05794">
        <ele>207.4</ele>
        <time>2015-09-23T13:27:28Z</time>
      </trkpt>
      <trkpt lat="43.49433" lon="6.058">
        <ele>209.4</ele>
        <time>2015-09-23T13:27:42Z</time>
      </trkpt>
      <trkpt lat="43.49425" lon="6.05799">
        <ele>210.1</ele>
        <time>2015-09-23T13:27:54Z</time>
      </trkpt>
      <trkpt lat="43.49417" lon="6.05803">
        <ele>212</ele>
        <time>2015-09-23T13:28:02Z</time>
      </trkpt>
      <trkpt lat="43.49416" lon="6.05803">
        <ele>212.1</ele>
        <time>2015-09-23T13:28:03Z</time>
      </trkpt>
      <trkpt lat="43.49402" lon="6.05814">
        <ele>212.4</ele>
        <time>2015-09-23T13:28:24Z</time>
      </trkpt>
      <trkpt lat="43.49395" lon="6.05817">
        <ele>212.4</ele>
        <time>2015-09-23T13:28:32Z</time>
      </trkpt>
      <trkpt lat="43.49389" lon="6.05826">
        <ele>212.9</ele>
        <time>2015-09-23T13:28:43Z</time>
      </trkpt>
      <trkpt lat="43.49383" lon="6.05835">
        <ele>213.3</ele>
        <time>2015-09-23T13:28:54Z</time>
      </trkpt>
      <trkpt lat="43.49379" lon="6.05846">
        <ele>213</ele>
        <time>2015-09-23T13:29:02Z</time>
      </trkpt>
      <trkpt lat="43.49373" lon="6.05853">
        <ele>214.1</ele>
        <time>2015-09-23T13:29:09Z</time>
      </trkpt>
      <trkpt lat="43.49373" lon="6.05855">
        <ele>214.2</ele>
        <time>2015-09-23T13:29:10Z</time>
      </trkpt>
      <trkpt lat="43.49363" lon="6.05871">
        <ele>215.4</ele>
        <time>2015-09-23T13:29:22Z</time>
      </trkpt>
      <trkpt lat="43.49357" lon="6.05879">
        <ele>215</ele>
        <time>2015-09-23T13:29:29Z</time>
      </trkpt>
      <trkpt lat="43.49349" lon="6.05876">
        <ele>215.6</ele>
        <time>2015-09-23T13:29:51Z</time>
      </trkpt>
      <trkpt lat="43.49345" lon="6.05867">
        <ele>216.1</ele>
        <time>2015-09-23T13:29:59Z</time>
      </trkpt>
      <trkpt lat="43.49342" lon="6.05857">
        <ele>216.6</ele>
        <time>2015-09-23T13:30:06Z</time>
      </trkpt>
      <trkpt lat="43.49338" lon="6.05846">
        <ele>216.1</ele>
        <time>2015-09-23T13:30:14Z</time>
      </trkpt>
      <trkpt lat="43.49337" lon="6.05845">
        <ele>216</ele>
        <time>2015-09-23T13:30:15Z</time>
      </trkpt>
      <trkpt lat="43.4933" lon="6.05827">
        <ele>216.6</ele>
        <time>2015-09-23T13:30:28Z</time>
      </trkpt>
      <trkpt lat="43.49323" lon="6.05821">
        <ele>216.2</ele>
        <time>2015-09-23T13:30:33Z</time>
      </trkpt>
      <trkpt lat="43.4932" lon="6.05811">
        <ele>216.4</ele>
        <time>2015-09-23T13:30:41Z</time>
      </trkpt>
      <trkpt lat="43.49315" lon="6.05801">
        <ele>216.8</ele>
        <time>2015-09-23T13:30:49Z</time>
      </trkpt>
      <trkpt lat="43.49318" lon="6.05789">
        <ele>217.1</ele>
        <time>2015-09-23T13:31:01Z</time>
      </trkpt>
      <trkpt lat="43.49324" lon="6.05782">
        <ele>218.2</ele>
        <time>2015-09-23T13:31:10Z</time>
      </trkpt>
      <trkpt lat="43.49325" lon="6.05771">
        <ele>217.8</ele>
        <time>2015-09-23T13:31:16Z</time>
      </trkpt>
      <trkpt lat="43.49325" lon="6.05769">
        <ele>217.7</ele>
        <time>2015-09-23T13:31:17Z</time>
      </trkpt>
      <trkpt lat="43.49323" lon="6.05749">
        <ele>218.1</ele>
        <time>2015-09-23T13:31:34Z</time>
      </trkpt>
      <trkpt lat="43.49328" lon="6.05739">
        <ele>219.3</ele>
        <time>2015-09-23T13:31:47Z</time>
      </trkpt>
      <trkpt lat="43.49334" lon="6.05732">
        <ele>219.6</ele>
        <time>2015-09-23T13:31:55Z</time>
      </trkpt>
      <trkpt lat="43.4934" lon="6.05723">
        <ele>219.4</ele>
        <time>2015-09-23T13:32:03Z</time>
      </trkpt>
      <trkpt lat="43.49344" lon="6.05713">
        <ele>220.2</ele>
        <time>2015-09-23T13:32:12Z</time>
      </trkpt>
      <trkpt lat="43.49345" lon="6.05701">
        <ele>221.4</ele>
        <time>2015-09-23T13:32:18Z</time>
      </trkpt>
      <trkpt lat="43.49344" lon="6.057">
        <ele>221.5</ele>
        <time>2015-09-23T13:32:19Z</time>
      </trkpt>
      <trkpt lat="43.49343" lon="6.05677">
        <ele>223.2</ele>
        <time>2015-09-23T13:32:40Z</time>
      </trkpt>
      <trkpt lat="43.49342" lon="6.05665">
        <ele>227.4</ele>
        <time>2015-09-23T13:32:54Z</time>
      </trkpt>
      <trkpt lat="43.49336" lon="6.05658">
        <ele>228.3</ele>
        <time>2015-09-23T13:33:06Z</time>
      </trkpt>
      <trkpt lat="43.49333" lon="6.05646">
        <ele>229.9</ele>
        <time>2015-09-23T13:33:13Z</time>
      </trkpt>
      <trkpt lat="43.4933" lon="6.05635">
        <ele>230.2</ele>
        <time>2015-09-23T13:33:24Z</time>
      </trkpt>
      <trkpt lat="43.4933" lon="6.05634">
        <ele>230.4</ele>
        <time>2015-09-23T13:33:25Z</time>
      </trkpt>
      <trkpt lat="43.49328" lon="6.05611">
        <ele>232.6</ele>
        <time>2015-09-23T13:33:51Z</time>
      </trkpt>
      <trkpt lat="43.49325" lon="6.05601">
        <ele>235.1</ele>
        <time>2015-09-23T13:34:06Z</time>
      </trkpt>
      <trkpt lat="43.4932" lon="6.0559">
        <ele>236.8</ele>
        <time>2015-09-23T13:34:15Z</time>
      </trkpt>
      <trkpt lat="43.49326" lon="6.0558">
        <ele>238.1</ele>
        <time>2015-09-23T13:34:40Z</time>
      </trkpt>
      <trkpt lat="43.49326" lon="6.0558">
        <ele>238.2</ele>
        <time>2015-09-23T13:34:41Z</time>
      </trkpt>
      <trkpt lat="43.49342" lon="6.05572">
        <ele>239.8</ele>
        <time>2015-09-23T13:35:01Z</time>
      </trkpt>
      <trkpt lat="43.4935" lon="6.05567">
        <ele>239.3</ele>
        <time>2015-09-23T13:35:10Z</time>
      </trkpt>
      <trkpt lat="43.49358" lon="6.05567">
        <ele>238.7</ele>
        <time>2015-09-23T13:35:22Z</time>
      </trkpt>
      <trkpt lat="43.49365" lon="6.0556">
        <ele>238.4</ele>
        <time>2015-09-23T13:35:30Z</time>
      </trkpt>
      <trkpt lat="43.4937" lon="6.05553">
        <ele>239.3</ele>
        <time>2015-09-23T13:35:37Z</time>
      </trkpt>
      <trkpt lat="43.49376" lon="6.05544">
        <ele>239.6</ele>
        <time>2015-09-23T13:35:44Z</time>
      </trkpt>
      <trkpt lat="43.49377" lon="6.05543">
        <ele>239.7</ele>
        <time>2015-09-23T13:35:45Z</time>
      </trkpt>
      <trkpt lat="43.49392" lon="6.05537">
        <ele>239.1</ele>
        <time>2015-09-23T13:36:01Z</time>
      </trkpt>
      <trkpt lat="43.49399" lon="6.05531">
        <ele>239.8</ele>
        <time>2015-09-23T13:36:14Z</time>
      </trkpt>
      <trkpt lat="43.49407" lon="6.05525">
        <ele>240.1</ele>
        <time>2015-09-23T13:36:21Z</time>
      </trkpt>
      <trkpt lat="43.49415" lon="6.05521">
        <ele>239.5</ele>
        <time>2015-09-23T13:36:30Z</time>
      </trkpt>
      <trkpt lat="43.49423" lon="6.05522">
        <ele>240.6</ele>
        <time>2015-09-23T13:36:38Z</time>
      </trkpt>
      <trkpt lat="43.49429" lon="6.05515">
        <ele>241</ele>
        <time>2015-09-23T13:36:45Z</time>
      </trkpt>
      <trkpt lat="43.49431" lon="6.05515">
        <ele>241</ele>
        <time>2015-09-23T13:36:46Z</time>
      </trkpt>
      <trkpt lat="43.49435" lon="6.05499">
        <ele>240.8</ele>
        <time>2015-09-23T13:37:29Z</time>
      </trkpt>
      <trkpt lat="43.49426" lon="6.05501">
        <ele>240.3</ele>
        <time>2015-09-23T13:37:43Z</time>
      </trkpt>
      <trkpt lat="43.49418" lon="6.05504">
        <ele>240.4</ele>
        <time>2015-09-23T13:37:52Z</time>
      </trkpt>
      <trkpt lat="43.49417" lon="6.05504">
        <ele>240.7</ele>
        <time>2015-09-23T13:37:53Z</time>
      </trkpt>
      <trkpt lat="43.49404" lon="6.05514">
        <ele>241.3</ele>
        <time>2015-09-23T13:38:10Z</time>
      </trkpt>
      <trkpt lat="43.49395" lon="6.05516">
        <ele>239.4</ele>
        <time>2015-09-23T13:38:20Z</time>
      </trkpt>
      <trkpt lat="43.49387" lon="6.05521">
        <ele>240</ele>
        <time>2015-09-23T13:38:34Z</time>
      </trkpt>
      <trkpt lat="43.49381" lon="6.05528">
        <ele>239.5</ele>
        <time>2015-09-23T13:38:45Z</time>
      </trkpt>
      <trkpt lat="43.49374" lon="6.05533">
        <ele>239.7</ele>
        <time>2015-09-23T13:38:52Z</time>
      </trkpt>
      <trkpt lat="43.49373" lon="6.05546">
        <ele>240.8</ele>
        <time>2015-09-23T13:39:02Z</time>
      </trkpt>
      <trkpt lat="43.49372" lon="6.05546">
        <ele>240.6</ele>
        <time>2015-09-23T13:39:03Z</time>
      </trkpt>
      <trkpt lat="43.49357" lon="6.05553">
        <ele>240.5</ele>
        <time>2015-09-23T13:39:14Z</time>
      </trkpt>
      <trkpt lat="43.4935" lon="6.05559">
        <ele>240.7</ele>
        <time>2015-09-23T13:39:23Z</time>
      </trkpt>
      <trkpt lat="43.49342" lon="6.05565">
        <ele>240.4</ele>
        <time>2015-09-23T13:39:31Z</time>
      </trkpt>
      <trkpt lat="43.49335" lon="6.05569">
        <ele>240.2</ele>
        <time>2015-09-23T13:39:36Z</time>
      </trkpt>
      <trkpt lat="43.49327" lon="6.05574">
        <ele>239</ele>
        <time>2015-09-23T13:39:42Z</time>
      </trkpt>
      <trkpt lat="43.4932" lon="6.05579">
        <ele>239.1</ele>
        <time>2015-09-23T13:39:48Z</time>
      </trkpt>
      <trkpt lat="43.49312" lon="6.05575">
        <ele>240</ele>
        <time>2015-09-23T13:40:48Z</time>
      </trkpt>
      <trkpt lat="43.49312" lon="6.05574">
        <ele>240.1</ele>
        <time>2015-09-23T13:40:49Z</time>
      </trkpt>
      <trkpt lat="43.49306" lon="6.05553">
        <ele>244.3</ele>
        <time>2015-09-23T13:41:15Z</time>
      </trkpt>
      <trkpt lat="43.49306" lon="6.05541">
        <ele>245.2</ele>
        <time>2015-09-23T13:41:29Z</time>
      </trkpt>
      <trkpt lat="43.49304" lon="6.05529">
        <ele>249</ele>
        <time>2015-09-23T13:41:48Z</time>
      </trkpt>
      <trkpt lat="43.49301" lon="6.05519">
        <ele>250.7</ele>
        <time>2015-09-23T13:41:59Z</time>
      </trkpt>
      <trkpt lat="43.493" lon="6.05518">
        <ele>250.8</ele>
        <time>2015-09-23T13:42:00Z</time>
      </trkpt>
      <trkpt lat="43.49315" lon="6.05504">
        <ele>253</ele>
        <time>2015-09-23T13:42:43Z</time>
      </trkpt>
      <trkpt lat="43.49318" lon="6.05493">
        <ele>254.5</ele>
        <time>2015-09-23T13:42:53Z</time>
      </trkpt>
      <trkpt lat="43.49323" lon="6.05483">
        <ele>254.6</ele>
        <time>2015-09-23T13:43:04Z</time>
      </trkpt>
      <trkpt lat="43.49323" lon="6.05483">
        <ele>254.6</ele>
        <time>2015-09-23T13:43:05Z</time>
      </trkpt>
      <trkpt lat="43.49337" lon="6.0547">
        <ele>256.2</ele>
        <time>2015-09-23T13:43:31Z</time>
      </trkpt>
      <trkpt lat="43.49344" lon="6.05463">
        <ele>257.3</ele>
        <time>2015-09-23T13:43:44Z</time>
      </trkpt>
      <trkpt lat="43.49349" lon="6.05453">
        <ele>256.9</ele>
        <time>2015-09-23T13:43:55Z</time>
      </trkpt>
      <trkpt lat="43.4935" lon="6.05441">
        <ele>259.1</ele>
        <time>2015-09-23T13:44:10Z</time>
      </trkpt>
      <trkpt lat="43.49351" lon="6.0544">
        <ele>259.5</ele>
        <time>2015-09-23T13:44:11Z</time>
      </trkpt>
      <trkpt lat="43.49361" lon="6.05425">
        <ele>263.2</ele>
        <time>2015-09-23T13:44:38Z</time>
      </trkpt>
      <trkpt lat="43.49367" lon="6.05419">
        <ele>263.2</ele>
        <time>2015-09-23T13:44:49Z</time>
      </trkpt>
      <trkpt lat="43.49374" lon="6.05413">
        <ele>262.2</ele>
        <time>2015-09-23T13:45:00Z</time>
      </trkpt>
      <trkpt lat="43.49382" lon="6.05407">
        <ele>263.9</ele>
        <time>2015-09-23T13:45:11Z</time>
      </trkpt>
      <trkpt lat="43.49383" lon="6.05408">
        <ele>264</ele>
        <time>2015-09-23T13:45:12Z</time>
      </trkpt>
      <trkpt lat="43.49396" lon="6.05395">
        <ele>263.3</ele>
        <time>2015-09-23T13:45:35Z</time>
      </trkpt>
      <trkpt lat="43.49399" lon="6.05384">
        <ele>264.9</ele>
        <time>2015-09-23T13:45:43Z</time>
      </trkpt>
      <trkpt lat="43.49406" lon="6.05376">
        <ele>266</ele>
        <time>2015-09-23T13:45:57Z</time>
      </trkpt>
      <trkpt lat="43.49413" lon="6.05368">
        <ele>266.1</ele>
        <time>2015-09-23T13:46:07Z</time>
      </trkpt>
      <trkpt lat="43.49416" lon="6.05357">
        <ele>266.5</ele>
        <time>2015-09-23T13:46:15Z</time>
      </trkpt>
      <trkpt lat="43.49415" lon="6.05356">
        <ele>266.2</ele>
        <time>2015-09-23T13:46:16Z</time>
      </trkpt>
      <trkpt lat="43.4942" lon="6.05335">
        <ele>267.9</ele>
        <time>2015-09-23T13:46:43Z</time>
      </trkpt>
      <trkpt lat="43.49422" lon="6.05322">
        <ele>267.3</ele>
        <time>2015-09-23T13:46:56Z</time>
      </trkpt>
      <trkpt lat="43.49414" lon="6.05319">
        <ele>267.6</ele>
        <time>2015-09-23T13:47:07Z</time>
      </trkpt>
      <trkpt lat="43.49406" lon="6.05313">
        <ele>267.7</ele>
        <time>2015-09-23T13:47:17Z</time>
      </trkpt>
      <trkpt lat="43.49405" lon="6.05313">
        <ele>267.9</ele>
        <time>2015-09-23T13:47:18Z</time>
      </trkpt>
      <trkpt lat="43.49393" lon="6.05298">
        <ele>269.5</ele>
        <time>2015-09-23T13:47:45Z</time>
      </trkpt>
      <trkpt lat="43.49388" lon="6.05289">
        <ele>269.4</ele>
        <time>2015-09-23T13:47:55Z</time>
      </trkpt>
      <trkpt lat="43.49382" lon="6.0528">
        <ele>268.1</ele>
        <time>2015-09-23T13:48:08Z</time>
      </trkpt>
      <trkpt lat="43.49374" lon="6.05275">
        <ele>268.6</ele>
        <time>2015-09-23T13:48:19Z</time>
      </trkpt>
      <trkpt lat="43.49373" lon="6.05274">
        <ele>268.1</ele>
        <time>2015-09-23T13:48:20Z</time>
      </trkpt>
      <trkpt lat="43.49358" lon="6.05266">
        <ele>269.1</ele>
        <time>2015-09-23T13:48:38Z</time>
      </trkpt>
      <trkpt lat="43.4935" lon="6.05262">
        <ele>269.1</ele>
        <time>2015-09-23T13:48:47Z</time>
      </trkpt>
      <trkpt lat="43.49343" lon="6.05256">
        <ele>266.5</ele>
        <time>2015-09-23T13:49:02Z</time>
      </trkpt>
      <trkpt lat="43.49335" lon="6.05251">
        <ele>269.6</ele>
        <time>2015-09-23T13:49:20Z</time>
      </trkpt>
      <trkpt lat="43.49334" lon="6.0525">
        <ele>269.6</ele>
        <time>2015-09-23T13:49:21Z</time>
      </trkpt>
      <trkpt lat="43.49322" lon="6.05236">
        <ele>269.2</ele>
        <time>2015-09-23T13:49:35Z</time>
      </trkpt>
      <trkpt lat="43.49318" lon="6.05226">
        <ele>268.3</ele>
        <time>2015-09-23T13:49:46Z</time>
      </trkpt>
      <trkpt lat="43.49314" lon="6.05215">
        <ele>269.5</ele>
        <time>2015-09-23T13:50:00Z</time>
      </trkpt>
      <trkpt lat="43.49309" lon="6.05206">
        <ele>271.1</ele>
        <time>2015-09-23T13:50:11Z</time>
      </trkpt>
      <trkpt lat="43.49303" lon="6.052">
        <ele>270.6</ele>
        <time>2015-09-23T13:50:26Z</time>
      </trkpt>
      <trkpt lat="43.49302" lon="6.05199">
        <ele>270.7</ele>
        <time>2015-09-23T13:50:27Z</time>
      </trkpt>
      <trkpt lat="43.49291" lon="6.05184">
        <ele>270.9</ele>
        <time>2015-09-23T13:50:47Z</time>
      </trkpt>
      <trkpt lat="43.49286" lon="6.05175">
        <ele>273</ele>
        <time>2015-09-23T13:50:57Z</time>
      </trkpt>
      <trkpt lat="43.49282" lon="6.05165">
        <ele>273.8</ele>
        <time>2015-09-23T13:51:08Z</time>
      </trkpt>
      <trkpt lat="43.49277" lon="6.05154">
        <ele>274.4</ele>
        <time>2015-09-23T13:51:21Z</time>
      </trkpt>
      <trkpt lat="43.49274" lon="6.05143">
        <ele>273.9</ele>
        <time>2015-09-23T13:51:35Z</time>
      </trkpt>
      <trkpt lat="43.49274" lon="6.05142">
        <ele>274</ele>
        <time>2015-09-23T13:51:36Z</time>
      </trkpt>
      <trkpt lat="43.49268" lon="6.05122">
        <ele>273.2</ele>
        <time>2015-09-23T13:51:55Z</time>
      </trkpt>
      <trkpt lat="43.49267" lon="6.0511">
        <ele>273.8</ele>
        <time>2015-09-23T13:52:08Z</time>
      </trkpt>
      <trkpt lat="43.4926" lon="6.05102">
        <ele>272.7</ele>
        <time>2015-09-23T13:52:17Z</time>
      </trkpt>
      <trkpt lat="43.4926" lon="6.0509">
        <ele>274.5</ele>
        <time>2015-09-23T13:52:34Z</time>
      </trkpt>
      <trkpt lat="43.49259" lon="6.05079">
        <ele>274.6</ele>
        <time>2015-09-23T13:52:48Z</time>
      </trkpt>
      <trkpt lat="43.49259" lon="6.05078">
        <ele>274.6</ele>
        <time>2015-09-23T13:52:49Z</time>
      </trkpt>
      <trkpt lat="43.49251" lon="6.05057">
        <ele>276.8</ele>
        <time>2015-09-23T13:53:13Z</time>
      </trkpt>
      <trkpt lat="43.49247" lon="6.05047">
        <ele>276.1</ele>
        <time>2015-09-23T13:53:24Z</time>
      </trkpt>
      <trkpt lat="43.49243" lon="6.05036">
        <ele>276</ele>
        <time>2015-09-23T13:53:35Z</time>
      </trkpt>
      <trkpt lat="43.49236" lon="6.05029">
        <ele>275.3</ele>
        <time>2015-09-23T13:53:46Z</time>
      </trkpt>
      <trkpt lat="43.4923" lon="6.0502">
        <ele>276.2</ele>
        <time>2015-09-23T13:54:01Z</time>
      </trkpt>
      <trkpt lat="43.4923" lon="6.05018">
        <ele>276.2</ele>
        <time>2015-09-23T13:54:02Z</time>
      </trkpt>
      <trkpt lat="43.49219" lon="6.05002">
        <ele>276.2</ele>
        <time>2015-09-23T13:54:24Z</time>
      </trkpt>
      <trkpt lat="43.49213" lon="6.04993">
        <ele>276.8</ele>
        <time>2015-09-23T13:54:33Z</time>
      </trkpt>
      <trkpt lat="43.49205" lon="6.04992">
        <ele>275.9</ele>
        <time>2015-09-23T13:54:45Z</time>
      </trkpt>
      <trkpt lat="43.49197" lon="6.0499">
        <ele>275.8</ele>
        <time>2015-09-23T13:54:59Z</time>
      </trkpt>
      <trkpt lat="43.49189" lon="6.04987">
        <ele>274.2</ele>
        <time>2015-09-23T13:55:16Z</time>
      </trkpt>
      <trkpt lat="43.49188" lon="6.04986">
        <ele>273.9</ele>
        <time>2015-09-23T13:55:17Z</time>
      </trkpt>
      <trkpt lat="43.49175" lon="6.04972">
        <ele>268</ele>
        <time>2015-09-23T13:55:54Z</time>
      </trkpt>
      <trkpt lat="43.4917" lon="6.04963">
        <ele>268.1</ele>
        <time>2015-09-23T13:56:04Z</time>
      </trkpt>
      <trkpt lat="43.49162" lon="6.04959">
        <ele>268.4</ele>
        <time>2015-09-23T13:56:14Z</time>
      </trkpt>
      <trkpt lat="43.49155" lon="6.04951">
        <ele>270.4</ele>
        <time>2015-09-23T13:56:28Z</time>
      </trkpt>
      <trkpt lat="43.49155" lon="6.0495">
        <ele>270.6</ele>
        <time>2015-09-23T13:56:29Z</time>
      </trkpt>
      <trkpt lat="43.49142" lon="6.04936">
        <ele>272.6</ele>
        <time>2015-09-23T13:56:51Z</time>
      </trkpt>
      <trkpt lat="43.49138" lon="6.04925">
        <ele>273.9</ele>
        <time>2015-09-23T13:57:21Z</time>
      </trkpt>
      <trkpt lat="43.49132" lon="6.04915">
        <ele>272.7</ele>
        <time>2015-09-23T13:57:39Z</time>
      </trkpt>
      <trkpt lat="43.49131" lon="6.04914">
        <ele>272.9</ele>
        <time>2015-09-23T13:57:40Z</time>
      </trkpt>
      <trkpt lat="43.49129" lon="6.04903">
        <ele>273.9</ele>
        <time>2015-09-23T13:59:02Z</time>
      </trkpt>
      <trkpt lat="43.49121" lon="6.04885">
        <ele>276.1</ele>
        <time>2015-09-23T13:59:21Z</time>
      </trkpt>
      <trkpt lat="43.49114" lon="6.04879">
        <ele>276.4</ele>
        <time>2015-09-23T13:59:32Z</time>
      </trkpt>
      <trkpt lat="43.49107" lon="6.04873">
        <ele>278</ele>
        <time>2015-09-23T13:59:43Z</time>
      </trkpt>
      <trkpt lat="43.49107" lon="6.0486">
        <ele>278.3</ele>
        <time>2015-09-23T14:00:01Z</time>
      </trkpt>
      <trkpt lat="43.49101" lon="6.04851">
        <ele>278.8</ele>
        <time>2015-09-23T14:00:17Z</time>
      </trkpt>
      <trkpt lat="43.49101" lon="6.04851">
        <ele>279</ele>
        <time>2015-09-23T14:00:18Z</time>
      </trkpt>
      <trkpt lat="43.49095" lon="6.0483">
        <ele>281.7</ele>
        <time>2015-09-23T14:00:45Z</time>
      </trkpt>
      <trkpt lat="43.49091" lon="6.0482">
        <ele>281.6</ele>
        <time>2015-09-23T14:00:57Z</time>
      </trkpt>
      <trkpt lat="43.49082" lon="6.04819">
        <ele>283</ele>
        <time>2015-09-23T14:01:14Z</time>
      </trkpt>
      <trkpt lat="43.49073" lon="6.0482">
        <ele>283.8</ele>
        <time>2015-09-23T14:01:27Z</time>
      </trkpt>
      <trkpt lat="43.49073" lon="6.0482">
        <ele>284</ele>
        <time>2015-09-23T14:01:28Z</time>
      </trkpt>
      <trkpt lat="43.49059" lon="6.04812">
        <ele>284.2</ele>
        <time>2015-09-23T14:01:51Z</time>
      </trkpt>
      <trkpt lat="43.49051" lon="6.04806">
        <ele>283.8</ele>
        <time>2015-09-23T14:02:04Z</time>
      </trkpt>
      <trkpt lat="43.49044" lon="6.048">
        <ele>282.7</ele>
        <time>2015-09-23T14:02:15Z</time>
      </trkpt>
      <trkpt lat="43.49036" lon="6.04799">
        <ele>281.4</ele>
        <time>2015-09-23T14:02:30Z</time>
      </trkpt>
      <trkpt lat="43.49034" lon="6.04799">
        <ele>281.7</ele>
        <time>2015-09-23T14:02:31Z</time>
      </trkpt>
      <trkpt lat="43.49023" lon="6.04811">
        <ele>280</ele>
        <time>2015-09-23T14:02:55Z</time>
      </trkpt>
      <trkpt lat="43.49015" lon="6.0481">
        <ele>280.5</ele>
        <time>2015-09-23T14:03:06Z</time>
      </trkpt>
      <trkpt lat="43.49006" lon="6.04812">
        <ele>280.6</ele>
        <time>2015-09-23T14:03:17Z</time>
      </trkpt>
      <trkpt lat="43.48998" lon="6.04807">
        <ele>279.3</ele>
        <time>2015-09-23T14:03:32Z</time>
      </trkpt>
      <trkpt lat="43.48997" lon="6.04807">
        <ele>279.8</ele>
        <time>2015-09-23T14:03:33Z</time>
      </trkpt>
      <trkpt lat="43.48984" lon="6.04793">
        <ele>277.9</ele>
        <time>2015-09-23T14:05:25Z</time>
      </trkpt>
      <trkpt lat="43.48983" lon="6.04793">
        <ele>278</ele>
        <time>2015-09-23T14:05:26Z</time>
      </trkpt>
      <trkpt lat="43.48973" lon="6.04806">
        <ele>276.8</ele>
        <time>2015-09-23T14:08:41Z</time>
      </trkpt>
      <trkpt lat="43.48973" lon="6.04806">
        <ele>276.9</ele>
        <time>2015-09-23T14:08:42Z</time>
      </trkpt>
      <trkpt lat="43.48987" lon="6.04818">
        <ele>280</ele>
        <time>2015-09-23T14:09:27Z</time>
      </trkpt>
      <trkpt lat="43.48992" lon="6.04808">
        <ele>278.7</ele>
        <time>2015-09-23T14:10:16Z</time>
      </trkpt>
      <trkpt lat="43.48992" lon="6.04807">
        <ele>278.6</ele>
        <time>2015-09-23T14:10:17Z</time>
      </trkpt>
      <trkpt lat="43.48984" lon="6.04801">
        <ele>279.8</ele>
        <time>2015-09-23T14:11:22Z</time>
      </trkpt>
      <trkpt lat="43.48976" lon="6.04803">
        <ele>278.1</ele>
        <time>2015-09-23T14:12:11Z</time>
      </trkpt>
      <trkpt lat="43.48971" lon="6.04794">
        <ele>277.2</ele>
        <time>2015-09-23T14:13:06Z</time>
      </trkpt>
      <trkpt lat="43.4897" lon="6.04793">
        <ele>277.1</ele>
        <time>2015-09-23T14:13:07Z</time>
      </trkpt>
      <trkpt lat="43.48957" lon="6.04781">
        <ele>276.9</ele>
        <time>2015-09-23T14:13:24Z</time>
      </trkpt>
      <trkpt lat="43.4895" lon="6.04773">
        <ele>276.5</ele>
        <time>2015-09-23T14:13:33Z</time>
      </trkpt>
      <trkpt lat="43.48949" lon="6.04761">
        <ele>278.3</ele>
        <time>2015-09-23T14:13:46Z</time>
      </trkpt>
      <trkpt lat="43.48947" lon="6.0475">
        <ele>278.7</ele>
        <time>2015-09-23T14:13:57Z</time>
      </trkpt>
      <trkpt lat="43.48943" lon="6.04739">
        <ele>279.3</ele>
        <time>2015-09-23T14:14:07Z</time>
      </trkpt>
      <trkpt lat="43.48942" lon="6.04738">
        <ele>279.4</ele>
        <time>2015-09-23T14:14:08Z</time>
      </trkpt>
      <trkpt lat="43.48937" lon="6.04717">
        <ele>282</ele>
        <time>2015-09-23T14:14:31Z</time>
      </trkpt>
      <trkpt lat="43.48941" lon="6.04707">
        <ele>281.1</ele>
        <time>2015-09-23T14:14:38Z</time>
      </trkpt>
      <trkpt lat="43.48937" lon="6.04697">
        <ele>281</ele>
        <time>2015-09-23T14:14:47Z</time>
      </trkpt>
      <trkpt lat="43.4894" lon="6.04685">
        <ele>282</ele>
        <time>2015-09-23T14:14:56Z</time>
      </trkpt>
      <trkpt lat="43.48945" lon="6.04675">
        <ele>281.3</ele>
        <time>2015-09-23T14:15:10Z</time>
      </trkpt>
      <trkpt lat="43.48944" lon="6.04674">
        <ele>281.5</ele>
        <time>2015-09-23T14:15:11Z</time>
      </trkpt>
      <trkpt lat="43.48942" lon="6.04652">
        <ele>282.9</ele>
        <time>2015-09-23T14:15:29Z</time>
      </trkpt>
      <trkpt lat="43.48941" lon="6.04641">
        <ele>284</ele>
        <time>2015-09-23T14:15:35Z</time>
      </trkpt>
      <trkpt lat="43.48942" lon="6.0463">
        <ele>283.8</ele>
        <time>2015-09-23T14:15:45Z</time>
      </trkpt>
      <trkpt lat="43.48943" lon="6.04618">
        <ele>285</ele>
        <time>2015-09-23T14:15:54Z</time>
      </trkpt>
      <trkpt lat="43.48943" lon="6.04606">
        <ele>285.6</ele>
        <time>2015-09-23T14:16:02Z</time>
      </trkpt>
      <trkpt lat="43.48943" lon="6.04594">
        <ele>287.4</ele>
        <time>2015-09-23T14:16:12Z</time>
      </trkpt>
      <trkpt lat="43.48944" lon="6.04592">
        <ele>287.3</ele>
        <time>2015-09-23T14:16:13Z</time>
      </trkpt>
      <trkpt lat="43.48948" lon="6.04572">
        <ele>288.6</ele>
        <time>2015-09-23T14:16:33Z</time>
      </trkpt>
      <trkpt lat="43.48953" lon="6.04562">
        <ele>287.3</ele>
        <time>2015-09-23T14:16:45Z</time>
      </trkpt>
      <trkpt lat="43.48956" lon="6.04553">
        <ele>286.7</ele>
        <time>2015-09-23T14:16:55Z</time>
      </trkpt>
      <trkpt lat="43.48956" lon="6.04541">
        <ele>286.8</ele>
        <time>2015-09-23T14:17:06Z</time>
      </trkpt>
      <trkpt lat="43.48948" lon="6.04547">
        <ele>286.2</ele>
        <time>2015-09-23T14:17:58Z</time>
      </trkpt>
      <trkpt lat="43.48948" lon="6.04547">
        <ele>286.1</ele>
        <time>2015-09-23T14:17:59Z</time>
      </trkpt>
      <trkpt lat="43.48949" lon="6.04549">
        <ele>288.2</ele>
        <time>2015-09-23T14:19:43Z</time>
      </trkpt>
      <trkpt lat="43.48948" lon="6.04548">
        <ele>288</ele>
        <time>2015-09-23T14:19:44Z</time>
      </trkpt>
      <trkpt lat="43.48939" lon="6.04567">
        <ele>286.7</ele>
        <time>2015-09-23T14:20:08Z</time>
      </trkpt>
      <trkpt lat="43.48938" lon="6.04579">
        <ele>286.4</ele>
        <time>2015-09-23T14:20:19Z</time>
      </trkpt>
      <trkpt lat="43.48934" lon="6.0459">
        <ele>285.3</ele>
        <time>2015-09-23T14:20:35Z</time>
      </trkpt>
      <trkpt lat="43.48937" lon="6.04602">
        <ele>284.9</ele>
        <time>2015-09-23T14:20:50Z</time>
      </trkpt>
      <trkpt lat="43.48937" lon="6.04602">
        <ele>284.9</ele>
        <time>2015-09-23T14:20:51Z</time>
      </trkpt>
      <trkpt lat="43.48935" lon="6.04625">
        <ele>283.5</ele>
        <time>2015-09-23T14:21:11Z</time>
      </trkpt>
      <trkpt lat="43.48934" lon="6.04637">
        <ele>283.5</ele>
        <time>2015-09-23T14:21:22Z</time>
      </trkpt>
      <trkpt lat="43.48933" lon="6.04649">
        <ele>282.7</ele>
        <time>2015-09-23T14:21:32Z</time>
      </trkpt>
      <trkpt lat="43.48934" lon="6.0466">
        <ele>282.7</ele>
        <time>2015-09-23T14:21:40Z</time>
      </trkpt>
      <trkpt lat="43.48935" lon="6.04671">
        <ele>282.1</ele>
        <time>2015-09-23T14:21:48Z</time>
      </trkpt>
      <trkpt lat="43.48935" lon="6.04683">
        <ele>281.4</ele>
        <time>2015-09-23T14:21:56Z</time>
      </trkpt>
      <trkpt lat="43.48935" lon="6.04684">
        <ele>281.4</ele>
        <time>2015-09-23T14:21:57Z</time>
      </trkpt>
      <trkpt lat="43.4893" lon="6.04704">
        <ele>281</ele>
        <time>2015-09-23T14:22:21Z</time>
      </trkpt>
      <trkpt lat="43.48929" lon="6.04716">
        <ele>280.2</ele>
        <time>2015-09-23T14:22:32Z</time>
      </trkpt>
      <trkpt lat="43.48932" lon="6.04727">
        <ele>279.3</ele>
        <time>2015-09-23T14:22:39Z</time>
      </trkpt>
      <trkpt lat="43.48936" lon="6.04738">
        <ele>278.8</ele>
        <time>2015-09-23T14:22:49Z</time>
      </trkpt>
      <trkpt lat="43.48938" lon="6.04749">
        <ele>278</ele>
        <time>2015-09-23T14:23:02Z</time>
      </trkpt>
      <trkpt lat="43.48938" lon="6.0475">
        <ele>278</ele>
        <time>2015-09-23T14:23:03Z</time>
      </trkpt>
      <trkpt lat="43.48945" lon="6.04771">
        <ele>277.4</ele>
        <time>2015-09-23T14:23:19Z</time>
      </trkpt>
      <trkpt lat="43.48949" lon="6.04781">
        <ele>276.3</ele>
        <time>2015-09-23T14:23:28Z</time>
      </trkpt>
      <trkpt lat="43.48953" lon="6.04789">
        <ele>275.2</ele>
        <time>2015-09-23T14:23:35Z</time>
      </trkpt>
      <trkpt lat="43.48956" lon="6.048">
        <ele>276.2</ele>
        <time>2015-09-23T14:23:42Z</time>
      </trkpt>
      <trkpt lat="43.48955" lon="6.04813">
        <ele>275.4</ele>
        <time>2015-09-23T14:23:53Z</time>
      </trkpt>
      <trkpt lat="43.48951" lon="6.04823">
        <ele>274.8</ele>
        <time>2015-09-23T14:24:04Z</time>
      </trkpt>
      <trkpt lat="43.4895" lon="6.04824">
        <ele>274.7</ele>
        <time>2015-09-23T14:24:05Z</time>
      </trkpt>
      <trkpt lat="43.4894" lon="6.04839">
        <ele>274</ele>
        <time>2015-09-23T14:24:24Z</time>
      </trkpt>
      <trkpt lat="43.48934" lon="6.04848">
        <ele>273.9</ele>
        <time>2015-09-23T14:24:36Z</time>
      </trkpt>
      <trkpt lat="43.48928" lon="6.04856">
        <ele>272.9</ele>
        <time>2015-09-23T14:24:47Z</time>
      </trkpt>
      <trkpt lat="43.48919" lon="6.0486">
        <ele>271.7</ele>
        <time>2015-09-23T14:24:54Z</time>
      </trkpt>
      <trkpt lat="43.48913" lon="6.04868">
        <ele>272.8</ele>
        <time>2015-09-23T14:25:05Z</time>
      </trkpt>
      <trkpt lat="43.48913" lon="6.04869">
        <ele>273.1</ele>
        <time>2015-09-23T14:25:06Z</time>
      </trkpt>
      <trkpt lat="43.48905" lon="6.04888">
        <ele>271.1</ele>
        <time>2015-09-23T14:25:22Z</time>
      </trkpt>
      <trkpt lat="43.48903" lon="6.04899">
        <ele>271</ele>
        <time>2015-09-23T14:25:31Z</time>
      </trkpt>
      <trkpt lat="43.48899" lon="6.0491">
        <ele>270.4</ele>
        <time>2015-09-23T14:25:41Z</time>
      </trkpt>
      <trkpt lat="43.48896" lon="6.04921">
        <ele>271.3</ele>
        <time>2015-09-23T14:25:49Z</time>
      </trkpt>
      <trkpt lat="43.48891" lon="6.0493">
        <ele>269.5</ele>
        <time>2015-09-23T14:25:58Z</time>
      </trkpt>
      <trkpt lat="43.48888" lon="6.04941">
        <ele>270.8</ele>
        <time>2015-09-23T14:26:04Z</time>
      </trkpt>
      <trkpt lat="43.48887" lon="6.04952">
        <ele>270</ele>
        <time>2015-09-23T14:26:16Z</time>
      </trkpt>
      <trkpt lat="43.48887" lon="6.04954">
        <ele>270.1</ele>
        <time>2015-09-23T14:26:17Z</time>
      </trkpt>
      <trkpt lat="43.48888" lon="6.04974">
        <ele>270.5</ele>
        <time>2015-09-23T14:26:30Z</time>
      </trkpt>
      <trkpt lat="43.48891" lon="6.04985">
        <ele>269.1</ele>
        <time>2015-09-23T14:26:36Z</time>
      </trkpt>
      <trkpt lat="43.48893" lon="6.04996">
        <ele>268.8</ele>
        <time>2015-09-23T14:26:44Z</time>
      </trkpt>
      <trkpt lat="43.48895" lon="6.05008">
        <ele>268.3</ele>
        <time>2015-09-23T14:26:57Z</time>
      </trkpt>
      <trkpt lat="43.48894" lon="6.05019">
        <ele>268.2</ele>
        <time>2015-09-23T14:27:03Z</time>
      </trkpt>
      <trkpt lat="43.48894" lon="6.05031">
        <ele>268.4</ele>
        <time>2015-09-23T14:27:12Z</time>
      </trkpt>
      <trkpt lat="43.4889" lon="6.05042">
        <ele>268.5</ele>
        <time>2015-09-23T14:27:17Z</time>
      </trkpt>
      <trkpt lat="43.48889" lon="6.05044">
        <ele>268.3</ele>
        <time>2015-09-23T14:27:18Z</time>
      </trkpt>
      <trkpt lat="43.48884" lon="6.05063">
        <ele>266.5</ele>
        <time>2015-09-23T14:27:31Z</time>
      </trkpt>
      <trkpt lat="43.48883" lon="6.05074">
        <ele>265.8</ele>
        <time>2015-09-23T14:27:39Z</time>
      </trkpt>
      <trkpt lat="43.48881" lon="6.05085">
        <ele>265</ele>
        <time>2015-09-23T14:27:46Z</time>
      </trkpt>
      <trkpt lat="43.48878" lon="6.05096">
        <ele>265.7</ele>
        <time>2015-09-23T14:27:52Z</time>
      </trkpt>
      <trkpt lat="43.48879" lon="6.05107">
        <ele>265.4</ele>
        <time>2015-09-23T14:28:03Z</time>
      </trkpt>
      <trkpt lat="43.48878" lon="6.05119">
        <ele>266</ele>
        <time>2015-09-23T14:28:13Z</time>
      </trkpt>
      <trkpt lat="43.48876" lon="6.05129">
        <ele>265</ele>
        <time>2015-09-23T14:28:19Z</time>
      </trkpt>
      <trkpt lat="43.48875" lon="6.0513">
        <ele>264.9</ele>
        <time>2015-09-23T14:28:20Z</time>
      </trkpt>
      <trkpt lat="43.48867" lon="6.05148">
        <ele>262.8</ele>
        <time>2015-09-23T14:28:35Z</time>
      </trkpt>
      <trkpt lat="43.48865" lon="6.05159">
        <ele>261.6</ele>
        <time>2015-09-23T14:28:44Z</time>
      </trkpt>
      <trkpt lat="43.48866" lon="6.0517">
        <ele>261.8</ele>
        <time>2015-09-23T14:30:07Z</time>
      </trkpt>
      <trkpt lat="43.48866" lon="6.05172">
        <ele>261.9</ele>
        <time>2015-09-23T14:30:08Z</time>
      </trkpt>
      <trkpt lat="43.48871" lon="6.05192">
        <ele>262.3</ele>
        <time>2015-09-23T14:30:28Z</time>
      </trkpt>
      <trkpt lat="43.48873" lon="6.05204">
        <ele>262.1</ele>
        <time>2015-09-23T14:30:37Z</time>
      </trkpt>
      <trkpt lat="43.48876" lon="6.05216">
        <ele>263</ele>
        <time>2015-09-23T14:30:45Z</time>
      </trkpt>
      <trkpt lat="43.48879" lon="6.05227">
        <ele>262.8</ele>
        <time>2015-09-23T14:30:56Z</time>
      </trkpt>
      <trkpt lat="43.48884" lon="6.05237">
        <ele>263.2</ele>
        <time>2015-09-23T14:31:04Z</time>
      </trkpt>
      <trkpt lat="43.48888" lon="6.05247">
        <ele>262.9</ele>
        <time>2015-09-23T14:31:11Z</time>
      </trkpt>
      <trkpt lat="43.48888" lon="6.05248">
        <ele>262.7</ele>
        <time>2015-09-23T14:31:12Z</time>
      </trkpt>
      <trkpt lat="43.48899" lon="6.05265">
        <ele>262.4</ele>
        <time>2015-09-23T14:31:29Z</time>
      </trkpt>
      <trkpt lat="43.48907" lon="6.05269">
        <ele>261.6</ele>
        <time>2015-09-23T14:31:38Z</time>
      </trkpt>
      <trkpt lat="43.48914" lon="6.05274">
        <ele>260</ele>
        <time>2015-09-23T14:31:44Z</time>
      </trkpt>
      <trkpt lat="43.48922" lon="6.05278">
        <ele>259.6</ele>
        <time>2015-09-23T14:31:52Z</time>
      </trkpt>
      <trkpt lat="43.48931" lon="6.0528">
        <ele>259</ele>
        <time>2015-09-23T14:32:00Z</time>
      </trkpt>
      <trkpt lat="43.48938" lon="6.05281">
        <ele>257.7</ele>
        <time>2015-09-23T14:32:08Z</time>
      </trkpt>
      <trkpt lat="43.48946" lon="6.05286">
        <ele>257.2</ele>
        <time>2015-09-23T14:32:14Z</time>
      </trkpt>
      <trkpt lat="43.48947" lon="6.05286">
        <ele>256.9</ele>
        <time>2015-09-23T14:32:15Z</time>
      </trkpt>
      <trkpt lat="43.48962" lon="6.05297">
        <ele>254.4</ele>
        <time>2015-09-23T14:32:34Z</time>
      </trkpt>
      <trkpt lat="43.48968" lon="6.05306">
        <ele>253.5</ele>
        <time>2015-09-23T14:32:43Z</time>
      </trkpt>
      <trkpt lat="43.48975" lon="6.05312">
        <ele>252</ele>
        <time>2015-09-23T14:32:51Z</time>
      </trkpt>
      <trkpt lat="43.4898" lon="6.05322">
        <ele>251.7</ele>
        <time>2015-09-23T14:32:59Z</time>
      </trkpt>
      <trkpt lat="43.48982" lon="6.05334">
        <ele>251.4</ele>
        <time>2015-09-23T14:33:08Z</time>
      </trkpt>
      <trkpt lat="43.48981" lon="6.05345">
        <ele>250.9</ele>
        <time>2015-09-23T14:33:18Z</time>
      </trkpt>
      <trkpt lat="43.48981" lon="6.05347">
        <ele>250.7</ele>
        <time>2015-09-23T14:33:19Z</time>
      </trkpt>
      <trkpt lat="43.48986" lon="6.05368">
        <ele>249.4</ele>
        <time>2015-09-23T14:33:32Z</time>
      </trkpt>
      <trkpt lat="43.48986" lon="6.05379">
        <ele>248.5</ele>
        <time>2015-09-23T14:33:39Z</time>
      </trkpt>
      <trkpt lat="43.48988" lon="6.05391">
        <ele>248.1</ele>
        <time>2015-09-23T14:33:47Z</time>
      </trkpt>
      <trkpt lat="43.48992" lon="6.05401">
        <ele>247.5</ele>
        <time>2015-09-23T14:33:55Z</time>
      </trkpt>
      <trkpt lat="43.48995" lon="6.05412">
        <ele>247.2</ele>
        <time>2015-09-23T14:34:03Z</time>
      </trkpt>
      <trkpt lat="43.48999" lon="6.05423">
        <ele>247.6</ele>
        <time>2015-09-23T14:34:09Z</time>
      </trkpt>
      <trkpt lat="43.49003" lon="6.05433">
        <ele>247.4</ele>
        <time>2015-09-23T14:34:16Z</time>
      </trkpt>
      <trkpt lat="43.49005" lon="6.05444">
        <ele>247.4</ele>
        <time>2015-09-23T14:34:23Z</time>
      </trkpt>
      <trkpt lat="43.49006" lon="6.05446">
        <ele>247.4</ele>
        <time>2015-09-23T14:34:24Z</time>
      </trkpt>
      <trkpt lat="43.49013" lon="6.05464">
        <ele>246.1</ele>
        <time>2015-09-23T14:34:36Z</time>
      </trkpt>
      <trkpt lat="43.49016" lon="6.05475">
        <ele>246.5</ele>
        <time>2015-09-23T14:34:43Z</time>
      </trkpt>
      <trkpt lat="43.49017" lon="6.05487">
        <ele>247.1</ele>
        <time>2015-09-23T14:34:56Z</time>
      </trkpt>
      <trkpt lat="43.49017" lon="6.05498">
        <ele>246.6</ele>
        <time>2015-09-23T14:35:04Z</time>
      </trkpt>
      <trkpt lat="43.49018" lon="6.05509">
        <ele>246</ele>
        <time>2015-09-23T14:35:11Z</time>
      </trkpt>
      <trkpt lat="43.49016" lon="6.0552">
        <ele>245.8</ele>
        <time>2015-09-23T14:35:18Z</time>
      </trkpt>
      <trkpt lat="43.49015" lon="6.05532">
        <ele>245.6</ele>
        <time>2015-09-23T14:35:25Z</time>
      </trkpt>
      <trkpt lat="43.49015" lon="6.05533">
        <ele>245.6</ele>
        <time>2015-09-23T14:35:26Z</time>
      </trkpt>
      <trkpt lat="43.49013" lon="6.05555">
        <ele>245.1</ele>
        <time>2015-09-23T14:35:42Z</time>
      </trkpt>
      <trkpt lat="43.49013" lon="6.05567">
        <ele>243.9</ele>
        <time>2015-09-23T14:35:49Z</time>
      </trkpt>
      <trkpt lat="43.49012" lon="6.05578">
        <ele>244.9</ele>
        <time>2015-09-23T14:35:57Z</time>
      </trkpt>
      <trkpt lat="43.49011" lon="6.0559">
        <ele>244.7</ele>
        <time>2015-09-23T14:36:04Z</time>
      </trkpt>
      <trkpt lat="43.49013" lon="6.05602">
        <ele>244.2</ele>
        <time>2015-09-23T14:36:11Z</time>
      </trkpt>
      <trkpt lat="43.49012" lon="6.05612">
        <ele>243.7</ele>
        <time>2015-09-23T14:36:18Z</time>
      </trkpt>
      <trkpt lat="43.49014" lon="6.05624">
        <ele>243.6</ele>
        <time>2015-09-23T14:36:25Z</time>
      </trkpt>
      <trkpt lat="43.49013" lon="6.05636">
        <ele>242.9</ele>
        <time>2015-09-23T14:36:32Z</time>
      </trkpt>
      <trkpt lat="43.49013" lon="6.05638">
        <ele>242.9</ele>
        <time>2015-09-23T14:36:33Z</time>
      </trkpt>
      <trkpt lat="43.49014" lon="6.05658">
        <ele>244.1</ele>
        <time>2015-09-23T14:36:43Z</time>
      </trkpt>
      <trkpt lat="43.49012" lon="6.05669">
        <ele>244.9</ele>
        <time>2015-09-23T14:36:50Z</time>
      </trkpt>
      <trkpt lat="43.49014" lon="6.05681">
        <ele>244.1</ele>
        <time>2015-09-23T14:36:56Z</time>
      </trkpt>
      <trkpt lat="43.49018" lon="6.05691">
        <ele>244</ele>
        <time>2015-09-23T14:37:02Z</time>
      </trkpt>
      <trkpt lat="43.49018" lon="6.05703">
        <ele>242.7</ele>
        <time>2015-09-23T14:37:15Z</time>
      </trkpt>
      <trkpt lat="43.49015" lon="6.05715">
        <ele>241.2</ele>
        <time>2015-09-23T14:37:23Z</time>
      </trkpt>
      <trkpt lat="43.49013" lon="6.05726">
        <ele>241.4</ele>
        <time>2015-09-23T14:37:29Z</time>
      </trkpt>
      <trkpt lat="43.4901" lon="6.05736">
        <ele>241.7</ele>
        <time>2015-09-23T14:37:35Z</time>
      </trkpt>
      <trkpt lat="43.49009" lon="6.05737">
        <ele>241.3</ele>
        <time>2015-09-23T14:37:36Z</time>
      </trkpt>
      <trkpt lat="43.49002" lon="6.05757">
        <ele>239.5</ele>
        <time>2015-09-23T14:37:50Z</time>
      </trkpt>
      <trkpt lat="43.48996" lon="6.05764">
        <ele>236.8</ele>
        <time>2015-09-23T14:37:59Z</time>
      </trkpt>
      <trkpt lat="43.4899" lon="6.05771">
        <ele>236.6</ele>
        <time>2015-09-23T14:38:07Z</time>
      </trkpt>
      <trkpt lat="43.48985" lon="6.0578">
        <ele>234.9</ele>
        <time>2015-09-23T14:38:15Z</time>
      </trkpt>
      <trkpt lat="43.48977" lon="6.05785">
        <ele>235.9</ele>
        <time>2015-09-23T14:38:21Z</time>
      </trkpt>
      <trkpt lat="43.4897" lon="6.05791">
        <ele>235.8</ele>
        <time>2015-09-23T14:38:27Z</time>
      </trkpt>
      <trkpt lat="43.48964" lon="6.058">
        <ele>236.2</ele>
        <time>2015-09-23T14:38:33Z</time>
      </trkpt>
      <trkpt lat="43.48961" lon="6.0581">
        <ele>235.4</ele>
        <time>2015-09-23T14:38:39Z</time>
      </trkpt>
      <trkpt lat="43.48961" lon="6.05812">
        <ele>235.4</ele>
        <time>2015-09-23T14:38:40Z</time>
      </trkpt>
      <trkpt lat="43.48955" lon="6.05831">
        <ele>234.4</ele>
        <time>2015-09-23T14:38:53Z</time>
      </trkpt>
      <trkpt lat="43.48951" lon="6.0584">
        <ele>233.1</ele>
        <time>2015-09-23T14:39:00Z</time>
      </trkpt>
      <trkpt lat="43.48948" lon="6.0585">
        <ele>231.5</ele>
        <time>2015-09-23T14:39:07Z</time>
      </trkpt>
      <trkpt lat="43.48943" lon="6.0586">
        <ele>232.2</ele>
        <time>2015-09-23T14:39:15Z</time>
      </trkpt>
      <trkpt lat="43.48944" lon="6.05871">
        <ele>230</ele>
        <time>2015-09-23T14:39:21Z</time>
      </trkpt>
      <trkpt lat="43.48945" lon="6.05882">
        <ele>230.6</ele>
        <time>2015-09-23T14:39:26Z</time>
      </trkpt>
      <trkpt lat="43.48946" lon="6.05893">
        <ele>229.5</ele>
        <time>2015-09-23T14:39:33Z</time>
      </trkpt>
      <trkpt lat="43.48947" lon="6.05904">
        <ele>228.8</ele>
        <time>2015-09-23T14:39:39Z</time>
      </trkpt>
      <trkpt lat="43.48947" lon="6.05915">
        <ele>227.7</ele>
        <time>2015-09-23T14:39:45Z</time>
      </trkpt>
      <trkpt lat="43.48947" lon="6.05917">
        <ele>227.7</ele>
        <time>2015-09-23T14:39:46Z</time>
      </trkpt>
      <trkpt lat="43.48946" lon="6.05938">
        <ele>225.8</ele>
        <time>2015-09-23T14:40:02Z</time>
      </trkpt>
      <trkpt lat="43.48945" lon="6.05948">
        <ele>224.4</ele>
        <time>2015-09-23T14:40:08Z</time>
      </trkpt>
      <trkpt lat="43.48946" lon="6.0596">
        <ele>223.2</ele>
        <time>2015-09-23T14:40:14Z</time>
      </trkpt>
      <trkpt lat="43.48946" lon="6.05972">
        <ele>223.1</ele>
        <time>2015-09-23T14:40:21Z</time>
      </trkpt>
      <trkpt lat="43.48947" lon="6.05983">
        <ele>221.5</ele>
        <time>2015-09-23T14:40:29Z</time>
      </trkpt>
      <trkpt lat="43.48947" lon="6.05995">
        <ele>221.2</ele>
        <time>2015-09-23T14:40:43Z</time>
      </trkpt>
      <trkpt lat="43.48948" lon="6.06007">
        <ele>219.8</ele>
        <time>2015-09-23T14:41:11Z</time>
      </trkpt>
      <trkpt lat="43.48948" lon="6.06008">
        <ele>220</ele>
        <time>2015-09-23T14:41:12Z</time>
      </trkpt>
      <trkpt lat="43.48943" lon="6.06029">
        <ele>217.3</ele>
        <time>2015-09-23T14:42:18Z</time>
      </trkpt>
      <trkpt lat="43.48943" lon="6.0603">
        <ele>217.4</ele>
        <time>2015-09-23T14:42:19Z</time>
      </trkpt>
      <trkpt lat="43.48937" lon="6.06051">
        <ele>216.6</ele>
        <time>2015-09-23T14:42:35Z</time>
      </trkpt>
      <trkpt lat="43.48935" lon="6.0606">
        <ele>216.5</ele>
        <time>2015-09-23T14:42:41Z</time>
      </trkpt>
      <trkpt lat="43.48933" lon="6.06072">
        <ele>216.7</ele>
        <time>2015-09-23T14:42:48Z</time>
      </trkpt>
      <trkpt lat="43.48932" lon="6.06084">
        <ele>216.1</ele>
        <time>2015-09-23T14:42:56Z</time>
      </trkpt>
      <trkpt lat="43.48929" lon="6.06095">
        <ele>214.9</ele>
        <time>2015-09-23T14:43:05Z</time>
      </trkpt>
      <trkpt lat="43.48927" lon="6.06106">
        <ele>215.1</ele>
        <time>2015-09-23T14:43:12Z</time>
      </trkpt>
      <trkpt lat="43.48927" lon="6.06118">
        <ele>214.3</ele>
        <time>2015-09-23T14:43:20Z</time>
      </trkpt>
      <trkpt lat="43.48927" lon="6.0612">
        <ele>214.5</ele>
        <time>2015-09-23T14:43:21Z</time>
      </trkpt>
      <trkpt lat="43.48928" lon="6.06141">
        <ele>212.4</ele>
        <time>2015-09-23T14:43:36Z</time>
      </trkpt>
      <trkpt lat="43.4893" lon="6.06153">
        <ele>211.5</ele>
        <time>2015-09-23T14:43:43Z</time>
      </trkpt>
      <trkpt lat="43.48931" lon="6.06164">
        <ele>211.2</ele>
        <time>2015-09-23T14:43:50Z</time>
      </trkpt>
      <trkpt lat="43.48931" lon="6.06175">
        <ele>211.1</ele>
        <time>2015-09-23T14:43:57Z</time>
      </trkpt>
      <trkpt lat="43.4893" lon="6.06186">
        <ele>211.3</ele>
        <time>2015-09-23T14:44:04Z</time>
      </trkpt>
      <trkpt lat="43.48929" lon="6.06197">
        <ele>211.1</ele>
        <time>2015-09-23T14:44:11Z</time>
      </trkpt>
      <trkpt lat="43.48928" lon="6.06209">
        <ele>210.3</ele>
        <time>2015-09-23T14:44:19Z</time>
      </trkpt>
      <trkpt lat="43.48927" lon="6.06221">
        <ele>210.3</ele>
        <time>2015-09-23T14:44:27Z</time>
      </trkpt>
      <trkpt lat="43.48927" lon="6.06223">
        <ele>210.4</ele>
        <time>2015-09-23T14:44:28Z</time>
      </trkpt>
      <trkpt lat="43.48925" lon="6.06244">
        <ele>211</ele>
        <time>2015-09-23T14:44:44Z</time>
      </trkpt>
      <trkpt lat="43.48923" lon="6.06256">
        <ele>210.8</ele>
        <time>2015-09-23T14:44:52Z</time>
      </trkpt>
      <trkpt lat="43.48923" lon="6.06269">
        <ele>210.5</ele>
        <time>2015-09-23T14:45:00Z</time>
      </trkpt>
      <trkpt lat="43.48923" lon="6.06281">
        <ele>209.8</ele>
        <time>2015-09-23T14:45:09Z</time>
      </trkpt>
      <trkpt lat="43.48923" lon="6.06291">
        <ele>209.1</ele>
        <time>2015-09-23T14:45:17Z</time>
      </trkpt>
      <trkpt lat="43.48923" lon="6.06302">
        <ele>208.9</ele>
        <time>2015-09-23T14:45:25Z</time>
      </trkpt>
      <trkpt lat="43.48923" lon="6.06315">
        <ele>209.6</ele>
        <time>2015-09-23T14:45:33Z</time>
      </trkpt>
      <trkpt lat="43.48923" lon="6.06316">
        <ele>209.4</ele>
        <time>2015-09-23T14:45:34Z</time>
      </trkpt>
      <trkpt lat="43.48923" lon="6.06337">
        <ele>209</ele>
        <time>2015-09-23T14:45:48Z</time>
      </trkpt>
      <trkpt lat="43.48921" lon="6.06349">
        <ele>208.6</ele>
        <time>2015-09-23T14:45:55Z</time>
      </trkpt>
      <trkpt lat="43.4892" lon="6.0636">
        <ele>207.3</ele>
        <time>2015-09-23T14:46:01Z</time>
      </trkpt>
      <trkpt lat="43.48919" lon="6.06371">
        <ele>208.3</ele>
        <time>2015-09-23T14:46:07Z</time>
      </trkpt>
      <trkpt lat="43.48918" lon="6.06383">
        <ele>207.3</ele>
        <time>2015-09-23T14:46:15Z</time>
      </trkpt>
      <trkpt lat="43.48917" lon="6.06395">
        <ele>207.2</ele>
        <time>2015-09-23T14:46:22Z</time>
      </trkpt>
      <trkpt lat="43.48915" lon="6.06407">
        <ele>207</ele>
        <time>2015-09-23T14:46:29Z</time>
      </trkpt>
      <trkpt lat="43.48914" lon="6.06419">
        <ele>206.3</ele>
        <time>2015-09-23T14:46:36Z</time>
      </trkpt>
      <trkpt lat="43.48914" lon="6.06421">
        <ele>206.2</ele>
        <time>2015-09-23T14:46:37Z</time>
      </trkpt>
      <trkpt lat="43.48913" lon="6.06443">
        <ele>206.5</ele>
        <time>2015-09-23T14:46:50Z</time>
      </trkpt>
      <trkpt lat="43.48912" lon="6.06455">
        <ele>205.7</ele>
        <time>2015-09-23T14:46:57Z</time>
      </trkpt>
      <trkpt lat="43.48911" lon="6.06466">
        <ele>205.2</ele>
        <time>2015-09-23T14:47:04Z</time>
      </trkpt>
      <trkpt lat="43.4891" lon="6.06477">
        <ele>205.4</ele>
        <time>2015-09-23T14:47:11Z</time>
      </trkpt>
      <trkpt lat="43.48909" lon="6.06488">
        <ele>204.9</ele>
        <time>2015-09-23T14:47:18Z</time>
      </trkpt>
      <trkpt lat="43.48909" lon="6.065">
        <ele>204.9</ele>
        <time>2015-09-23T14:47:25Z</time>
      </trkpt>
      <trkpt lat="43.48908" lon="6.06511">
        <ele>203.9</ele>
        <time>2015-09-23T14:47:31Z</time>
      </trkpt>
      <trkpt lat="43.48909" lon="6.06522">
        <ele>204.4</ele>
        <time>2015-09-23T14:47:37Z</time>
      </trkpt>
      <trkpt lat="43.48909" lon="6.06524">
        <ele>204.6</ele>
        <time>2015-09-23T14:47:38Z</time>
      </trkpt>
      <trkpt lat="43.48908" lon="6.06545">
        <ele>203.6</ele>
        <time>2015-09-23T14:47:50Z</time>
      </trkpt>
      <trkpt lat="43.48907" lon="6.06557">
        <ele>204.2</ele>
        <time>2015-09-23T14:47:58Z</time>
      </trkpt>
      <trkpt lat="43.48908" lon="6.06568">
        <ele>203.4</ele>
        <time>2015-09-23T14:48:05Z</time>
      </trkpt>
      <trkpt lat="43.48909" lon="6.0658">
        <ele>204</ele>
        <time>2015-09-23T14:48:13Z</time>
      </trkpt>
      <trkpt lat="43.48909" lon="6.06592">
        <ele>203.5</ele>
        <time>2015-09-23T14:48:20Z</time>
      </trkpt>
      <trkpt lat="43.48909" lon="6.06603">
        <ele>202.9</ele>
        <time>2015-09-23T14:48:26Z</time>
      </trkpt>
      <trkpt lat="43.48908" lon="6.06614">
        <ele>202.9</ele>
        <time>2015-09-23T14:48:32Z</time>
      </trkpt>
      <trkpt lat="43.48907" lon="6.06626">
        <ele>202.3</ele>
        <time>2015-09-23T14:48:39Z</time>
      </trkpt>
      <trkpt lat="43.48907" lon="6.06628">
        <ele>202.1</ele>
        <time>2015-09-23T14:48:40Z</time>
      </trkpt>
      <trkpt lat="43.48909" lon="6.0665">
        <ele>201.7</ele>
        <time>2015-09-23T14:48:52Z</time>
      </trkpt>
      <trkpt lat="43.4891" lon="6.06661">
        <ele>201.4</ele>
        <time>2015-09-23T14:48:59Z</time>
      </trkpt>
      <trkpt lat="43.4891" lon="6.06672">
        <ele>200.7</ele>
        <time>2015-09-23T14:49:05Z</time>
      </trkpt>
      <trkpt lat="43.4891" lon="6.06684">
        <ele>200.1</ele>
        <time>2015-09-23T14:49:13Z</time>
      </trkpt>
      <trkpt lat="43.4891" lon="6.06695">
        <ele>200.2</ele>
        <time>2015-09-23T14:49:19Z</time>
      </trkpt>
      <trkpt lat="43.4891" lon="6.06706">
        <ele>200.2</ele>
        <time>2015-09-23T14:49:26Z</time>
      </trkpt>
      <trkpt lat="43.4891" lon="6.06717">
        <ele>198.5</ele>
        <time>2015-09-23T14:49:32Z</time>
      </trkpt>
      <trkpt lat="43.48909" lon="6.06729">
        <ele>197.1</ele>
        <time>2015-09-23T14:49:39Z</time>
      </trkpt>
      <trkpt lat="43.48907" lon="6.0674">
        <ele>197.9</ele>
        <time>2015-09-23T14:49:45Z</time>
      </trkpt>
      <trkpt lat="43.48906" lon="6.06741">
        <ele>198</ele>
        <time>2015-09-23T14:49:46Z</time>
      </trkpt>
      <trkpt lat="43.48901" lon="6.06762">
        <ele>198.3</ele>
        <time>2015-09-23T14:49:59Z</time>
      </trkpt>
      <trkpt lat="43.48899" lon="6.06774">
        <ele>198.8</ele>
        <time>2015-09-23T14:50:06Z</time>
      </trkpt>
      <trkpt lat="43.48897" lon="6.06785">
        <ele>198</ele>
        <time>2015-09-23T14:50:13Z</time>
      </trkpt>
      <trkpt lat="43.48895" lon="6.06797">
        <ele>197.2</ele>
        <time>2015-09-23T14:50:20Z</time>
      </trkpt>
      <trkpt lat="43.48893" lon="6.06809">
        <ele>198.3</ele>
        <time>2015-09-23T14:50:27Z</time>
      </trkpt>
      <trkpt lat="43.48891" lon="6.0682">
        <ele>197.2</ele>
        <time>2015-09-23T14:50:33Z</time>
      </trkpt>
      <trkpt lat="43.48889" lon="6.06831">
        <ele>196.8</ele>
        <time>2015-09-23T14:50:40Z</time>
      </trkpt>
      <trkpt lat="43.48886" lon="6.06843">
        <ele>197.7</ele>
        <time>2015-09-23T14:50:47Z</time>
      </trkpt>
      <trkpt lat="43.48885" lon="6.06844">
        <ele>197.7</ele>
        <time>2015-09-23T14:50:48Z</time>
      </trkpt>
      <trkpt lat="43.4888" lon="6.06864">
        <ele>195.9</ele>
        <time>2015-09-23T14:51:01Z</time>
      </trkpt>
      <trkpt lat="43.48876" lon="6.06875">
        <ele>197</ele>
        <time>2015-09-23T14:51:08Z</time>
      </trkpt>
      <trkpt lat="43.48873" lon="6.06885">
        <ele>196.8</ele>
        <time>2015-09-23T14:51:15Z</time>
      </trkpt>
      <trkpt lat="43.48869" lon="6.06895">
        <ele>196.5</ele>
        <time>2015-09-23T14:51:21Z</time>
      </trkpt>
      <trkpt lat="43.48864" lon="6.06906">
        <ele>196.8</ele>
        <time>2015-09-23T14:51:28Z</time>
      </trkpt>
      <trkpt lat="43.48857" lon="6.0691">
        <ele>195.6</ele>
        <time>2015-09-23T14:53:00Z</time>
      </trkpt>
      <trkpt lat="43.48856" lon="6.06911">
        <ele>195.6</ele>
        <time>2015-09-23T14:53:01Z</time>
      </trkpt>
      <trkpt lat="43.4884" lon="6.06913">
        <ele>196.4</ele>
        <time>2015-09-23T14:53:18Z</time>
      </trkpt>
      <trkpt lat="43.48831" lon="6.06912">
        <ele>197.5</ele>
        <time>2015-09-23T14:53:25Z</time>
      </trkpt>
      <trkpt lat="43.48823" lon="6.06914">
        <ele>198.4</ele>
        <time>2015-09-23T14:53:32Z</time>
      </trkpt>
      <trkpt lat="43.48815" lon="6.06918">
        <ele>198.4</ele>
        <time>2015-09-23T14:53:40Z</time>
      </trkpt>
      <trkpt lat="43.48806" lon="6.0692">
        <ele>200.6</ele>
        <time>2015-09-23T14:53:47Z</time>
      </trkpt>
      <trkpt lat="43.48798" lon="6.06922">
        <ele>200.7</ele>
        <time>2015-09-23T14:53:55Z</time>
      </trkpt>
      <trkpt lat="43.4879" lon="6.06926">
        <ele>201.3</ele>
        <time>2015-09-23T14:54:02Z</time>
      </trkpt>
      <trkpt lat="43.48789" lon="6.06927">
        <ele>201.2</ele>
        <time>2015-09-23T14:54:03Z</time>
      </trkpt>
      <trkpt lat="43.48776" lon="6.06939">
        <ele>201</ele>
        <time>2015-09-23T14:54:19Z</time>
      </trkpt>
      <trkpt lat="43.48769" lon="6.06944">
        <ele>200.1</ele>
        <time>2015-09-23T14:54:25Z</time>
      </trkpt>
      <trkpt lat="43.48762" lon="6.06951">
        <ele>199.5</ele>
        <time>2015-09-23T14:54:34Z</time>
      </trkpt>
      <trkpt lat="43.48754" lon="6.06954">
        <ele>199.1</ele>
        <time>2015-09-23T14:54:42Z</time>
      </trkpt>
      <trkpt lat="43.48746" lon="6.06954">
        <ele>200.3</ele>
        <time>2015-09-23T14:54:52Z</time>
      </trkpt>
      <trkpt lat="43.48738" lon="6.06951">
        <ele>201</ele>
        <time>2015-09-23T14:55:00Z</time>
      </trkpt>
      <trkpt lat="43.4873" lon="6.06949">
        <ele>200.9</ele>
        <time>2015-09-23T14:55:07Z</time>
      </trkpt>
      <trkpt lat="43.48729" lon="6.06948">
        <ele>201</ele>
        <time>2015-09-23T14:55:08Z</time>
      </trkpt>
      <trkpt lat="43.48714" lon="6.06942">
        <ele>202.1</ele>
        <time>2015-09-23T14:55:21Z</time>
      </trkpt>
      <trkpt lat="43.48706" lon="6.0694">
        <ele>202.5</ele>
        <time>2015-09-23T14:55:28Z</time>
      </trkpt>
      <trkpt lat="43.48697" lon="6.06938">
        <ele>203.1</ele>
        <time>2015-09-23T14:55:36Z</time>
      </trkpt>
      <trkpt lat="43.48688" lon="6.06937">
        <ele>203.7</ele>
        <time>2015-09-23T14:55:44Z</time>
      </trkpt>
      <trkpt lat="43.4868" lon="6.06935">
        <ele>203.5</ele>
        <time>2015-09-23T14:55:50Z</time>
      </trkpt>
      <trkpt lat="43.48672" lon="6.06933">
        <ele>203.5</ele>
        <time>2015-09-23T14:55:56Z</time>
      </trkpt>
      <trkpt lat="43.48664" lon="6.06929">
        <ele>204.4</ele>
        <time>2015-09-23T14:56:09Z</time>
      </trkpt>
      <trkpt lat="43.48664" lon="6.06928">
        <ele>204.6</ele>
        <time>2015-09-23T14:56:10Z</time>
      </trkpt>
      <trkpt lat="43.48671" lon="6.06939">
        <ele>203.4</ele>
        <time>2015-09-23T14:57:19Z</time>
      </trkpt>
      <trkpt lat="43.48685" lon="6.06948">
        <ele>203.2</ele>
        <time>2015-09-23T14:57:38Z</time>
      </trkpt>
      <trkpt lat="43.48694" lon="6.06948">
        <ele>202.3</ele>
        <time>2015-09-23T14:57:47Z</time>
      </trkpt>
      <trkpt lat="43.48702" lon="6.06948">
        <ele>202.4</ele>
        <time>2015-09-23T14:57:55Z</time>
      </trkpt>
      <trkpt lat="43.48711" lon="6.06948">
        <ele>201.7</ele>
        <time>2015-09-23T14:58:03Z</time>
      </trkpt>
      <trkpt lat="43.48719" lon="6.06951">
        <ele>200.9</ele>
        <time>2015-09-23T14:58:11Z</time>
      </trkpt>
      <trkpt lat="43.48728" lon="6.06954">
        <ele>199.9</ele>
        <time>2015-09-23T14:58:21Z</time>
      </trkpt>
      <trkpt lat="43.48729" lon="6.06955">
        <ele>199.9</ele>
        <time>2015-09-23T14:58:22Z</time>
      </trkpt>
      <trkpt lat="43.48744" lon="6.06962">
        <ele>198</ele>
        <time>2015-09-23T14:58:46Z</time>
      </trkpt>
      <trkpt lat="43.48746" lon="6.0695">
        <ele>198.5</ele>
        <time>2015-09-23T14:59:02Z</time>
      </trkpt>
      <trkpt lat="43.48742" lon="6.0694">
        <ele>201.1</ele>
        <time>2015-09-23T14:59:21Z</time>
      </trkpt>
      <trkpt lat="43.48734" lon="6.06936">
        <ele>201.4</ele>
        <time>2015-09-23T14:59:47Z</time>
      </trkpt>
      <trkpt lat="43.48733" lon="6.06936">
        <ele>201.2</ele>
        <time>2015-09-23T14:59:48Z</time>
      </trkpt>
      <trkpt lat="43.48719" lon="6.06924">
        <ele>203.5</ele>
        <time>2015-09-23T15:00:09Z</time>
      </trkpt>
      <trkpt lat="43.48712" lon="6.06918">
        <ele>204.5</ele>
        <time>2015-09-23T15:00:20Z</time>
      </trkpt>
      <trkpt lat="43.48705" lon="6.06911">
        <ele>205</ele>
        <time>2015-09-23T15:00:32Z</time>
      </trkpt>
      <trkpt lat="43.48699" lon="6.06904">
        <ele>206.4</ele>
        <time>2015-09-23T15:00:46Z</time>
      </trkpt>
      <trkpt lat="43.48693" lon="6.06895">
        <ele>206.6</ele>
        <time>2015-09-23T15:00:56Z</time>
      </trkpt>
      <trkpt lat="43.48693" lon="6.06894">
        <ele>206.8</ele>
        <time>2015-09-23T15:00:57Z</time>
      </trkpt>
      <trkpt lat="43.48681" lon="6.06876">
        <ele>210.2</ele>
        <time>2015-09-23T15:01:15Z</time>
      </trkpt>
      <trkpt lat="43.48674" lon="6.06869">
        <ele>210.5</ele>
        <time>2015-09-23T15:01:25Z</time>
      </trkpt>
      <trkpt lat="43.48666" lon="6.06864">
        <ele>211.9</ele>
        <time>2015-09-23T15:01:32Z</time>
      </trkpt>
      <trkpt lat="43.48659" lon="6.06857">
        <ele>212.8</ele>
        <time>2015-09-23T15:01:40Z</time>
      </trkpt>
      <trkpt lat="43.48653" lon="6.0685">
        <ele>214.1</ele>
        <time>2015-09-23T15:01:50Z</time>
      </trkpt>
      <trkpt lat="43.48644" lon="6.06847">
        <ele>214.7</ele>
        <time>2015-09-23T15:01:59Z</time>
      </trkpt>
      <trkpt lat="43.48643" lon="6.06846">
        <ele>214.8</ele>
        <time>2015-09-23T15:02:00Z</time>
      </trkpt>
      <trkpt lat="43.48628" lon="6.0684">
        <ele>214.6</ele>
        <time>2015-09-23T15:02:15Z</time>
      </trkpt>
      <trkpt lat="43.4862" lon="6.0684">
        <ele>214.8</ele>
        <time>2015-09-23T15:02:25Z</time>
      </trkpt>
      <trkpt lat="43.48611" lon="6.06841">
        <ele>214.6</ele>
        <time>2015-09-23T15:02:33Z</time>
      </trkpt>
      <trkpt lat="43.48603" lon="6.06839">
        <ele>215.4</ele>
        <time>2015-09-23T15:02:41Z</time>
      </trkpt>
      <trkpt lat="43.48596" lon="6.06832">
        <ele>216</ele>
        <time>2015-09-23T15:02:51Z</time>
      </trkpt>
      <trkpt lat="43.48589" lon="6.06826">
        <ele>216.8</ele>
        <time>2015-09-23T15:02:59Z</time>
      </trkpt>
      <trkpt lat="43.48581" lon="6.06821">
        <ele>217.1</ele>
        <time>2015-09-23T15:03:06Z</time>
      </trkpt>
      <trkpt lat="43.4858" lon="6.06821">
        <ele>217</ele>
        <time>2015-09-23T15:03:07Z</time>
      </trkpt>
      <trkpt lat="43.48565" lon="6.06812">
        <ele>218.6</ele>
        <time>2015-09-23T15:03:26Z</time>
      </trkpt>
      <trkpt lat="43.48557" lon="6.06808">
        <ele>219.5</ele>
        <time>2015-09-23T15:03:34Z</time>
      </trkpt>
      <trkpt lat="43.48551" lon="6.068">
        <ele>219.6</ele>
        <time>2015-09-23T15:03:43Z</time>
      </trkpt>
      <trkpt lat="43.48543" lon="6.06795">
        <ele>220.4</ele>
        <time>2015-09-23T15:03:52Z</time>
      </trkpt>
      <trkpt lat="43.48536" lon="6.06789">
        <ele>221.4</ele>
        <time>2015-09-23T15:03:59Z</time>
      </trkpt>
      <trkpt lat="43.48529" lon="6.06783">
        <ele>222.4</ele>
        <time>2015-09-23T15:04:07Z</time>
      </trkpt>
      <trkpt lat="43.48529" lon="6.06781">
        <ele>222.3</ele>
        <time>2015-09-23T15:04:08Z</time>
      </trkpt>
      <trkpt lat="43.48517" lon="6.06767">
        <ele>223.2</ele>
        <time>2015-09-23T15:04:24Z</time>
      </trkpt>
      <trkpt lat="43.48511" lon="6.06759">
        <ele>223.9</ele>
        <time>2015-09-23T15:04:32Z</time>
      </trkpt>
      <trkpt lat="43.48506" lon="6.06749">
        <ele>224.6</ele>
        <time>2015-09-23T15:04:42Z</time>
      </trkpt>
      <trkpt lat="43.48499" lon="6.06741">
        <ele>225.8</ele>
        <time>2015-09-23T15:04:48Z</time>
      </trkpt>
      <trkpt lat="43.48495" lon="6.06732">
        <ele>225.7</ele>
        <time>2015-09-23T15:04:55Z</time>
      </trkpt>
      <trkpt lat="43.48491" lon="6.06722">
        <ele>225.9</ele>
        <time>2015-09-23T15:05:04Z</time>
      </trkpt>
      <trkpt lat="43.48486" lon="6.06713">
        <ele>225.5</ele>
        <time>2015-09-23T15:05:11Z</time>
      </trkpt>
      <trkpt lat="43.48485" lon="6.06712">
        <ele>225.4</ele>
        <time>2015-09-23T15:05:12Z</time>
      </trkpt>
      <trkpt lat="43.48475" lon="6.06695">
        <ele>228</ele>
        <time>2015-09-23T15:05:27Z</time>
      </trkpt>
      <trkpt lat="43.48473" lon="6.06683">
        <ele>228.8</ele>
        <time>2015-09-23T15:05:39Z</time>
      </trkpt>
      <trkpt lat="43.48473" lon="6.06672">
        <ele>228.4</ele>
        <time>2015-09-23T15:05:55Z</time>
      </trkpt>
      <trkpt lat="43.48475" lon="6.06661">
        <ele>228.5</ele>
        <time>2015-09-23T15:06:04Z</time>
      </trkpt>
      <trkpt lat="43.48476" lon="6.06649">
        <ele>228.8</ele>
        <time>2015-09-23T15:06:10Z</time>
      </trkpt>
      <trkpt lat="43.48476" lon="6.06637">
        <ele>228.8</ele>
        <time>2015-09-23T15:06:15Z</time>
      </trkpt>
      <trkpt lat="43.48476" lon="6.06635">
        <ele>228.8</ele>
        <time>2015-09-23T15:06:16Z</time>
      </trkpt>
      <trkpt lat="43.48474" lon="6.06614">
        <ele>230.3</ele>
        <time>2015-09-23T15:06:26Z</time>
      </trkpt>
      <trkpt lat="43.48472" lon="6.06603">
        <ele>231</ele>
        <time>2015-09-23T15:06:32Z</time>
      </trkpt>
      <trkpt lat="43.4847" lon="6.06592">
        <ele>231.4</ele>
        <time>2015-09-23T15:06:39Z</time>
      </trkpt>
      <trkpt lat="43.48465" lon="6.06582">
        <ele>232.6</ele>
        <time>2015-09-23T15:06:47Z</time>
      </trkpt>
      <trkpt lat="43.48459" lon="6.06573">
        <ele>233.5</ele>
        <time>2015-09-23T15:06:56Z</time>
      </trkpt>
      <trkpt lat="43.48455" lon="6.06562">
        <ele>233.8</ele>
        <time>2015-09-23T15:07:05Z</time>
      </trkpt>
      <trkpt lat="43.48452" lon="6.06551">
        <ele>234.6</ele>
        <time>2015-09-23T15:07:15Z</time>
      </trkpt>
      <trkpt lat="43.48445" lon="6.06545">
        <ele>234.9</ele>
        <time>2015-09-23T15:07:23Z</time>
      </trkpt>
      <trkpt lat="43.48443" lon="6.06544">
        <ele>235</ele>
        <time>2015-09-23T15:07:24Z</time>
      </trkpt>
      <trkpt lat="43.4843" lon="6.06533">
        <ele>235.8</ele>
        <time>2015-09-23T15:07:38Z</time>
      </trkpt>
      <trkpt lat="43.48422" lon="6.06528">
        <ele>235.7</ele>
        <time>2015-09-23T15:07:45Z</time>
      </trkpt>
      <trkpt lat="43.48414" lon="6.06522">
        <ele>236.1</ele>
        <time>2015-09-23T15:07:53Z</time>
      </trkpt>
      <trkpt lat="43.48406" lon="6.06518">
        <ele>236.6</ele>
        <time>2015-09-23T15:08:01Z</time>
      </trkpt>
      <trkpt lat="43.48398" lon="6.06513">
        <ele>235.9</ele>
        <time>2015-09-23T15:08:08Z</time>
      </trkpt>
      <trkpt lat="43.48391" lon="6.06507">
        <ele>236.1</ele>
        <time>2015-09-23T15:08:17Z</time>
      </trkpt>
      <trkpt lat="43.48384" lon="6.06502">
        <ele>235.6</ele>
        <time>2015-09-23T15:08:23Z</time>
      </trkpt>
      <trkpt lat="43.48376" lon="6.06498">
        <ele>236.7</ele>
        <time>2015-09-23T15:08:30Z</time>
      </trkpt>
      <trkpt lat="43.48374" lon="6.06497">
        <ele>236.6</ele>
        <time>2015-09-23T15:08:31Z</time>
      </trkpt>
      <trkpt lat="43.4836" lon="6.06486">
        <ele>236.8</ele>
        <time>2015-09-23T15:08:44Z</time>
      </trkpt>
      <trkpt lat="43.48353" lon="6.06482">
        <ele>237.2</ele>
        <time>2015-09-23T15:08:52Z</time>
      </trkpt>
      <trkpt lat="43.48346" lon="6.06474">
        <ele>237.4</ele>
        <time>2015-09-23T15:09:02Z</time>
      </trkpt>
      <trkpt lat="43.48339" lon="6.06469">
        <ele>237.9</ele>
        <time>2015-09-23T15:09:11Z</time>
      </trkpt>
      <trkpt lat="43.48331" lon="6.06467">
        <ele>237.7</ele>
        <time>2015-09-23T15:09:19Z</time>
      </trkpt>
      <trkpt lat="43.48323" lon="6.06466">
        <ele>238.6</ele>
        <time>2015-09-23T15:09:28Z</time>
      </trkpt>
      <trkpt lat="43.48314" lon="6.06462">
        <ele>239.5</ele>
        <time>2015-09-23T15:09:41Z</time>
      </trkpt>
      <trkpt lat="43.48314" lon="6.06462">
        <ele>239.5</ele>
        <time>2015-09-23T15:09:42Z</time>
      </trkpt>
      <trkpt lat="43.48298" lon="6.06462">
        <ele>239.5</ele>
        <time>2015-09-23T15:10:26Z</time>
      </trkpt>
      <trkpt lat="43.4829" lon="6.06463">
        <ele>240.8</ele>
        <time>2015-09-23T15:10:45Z</time>
      </trkpt>
      <trkpt lat="43.48289" lon="6.06464">
        <ele>240.8</ele>
        <time>2015-09-23T15:10:46Z</time>
      </trkpt>
      <trkpt lat="43.48274" lon="6.06471">
        <ele>241.3</ele>
        <time>2015-09-23T15:12:33Z</time>
      </trkpt>
      <trkpt lat="43.48274" lon="6.06471">
        <ele>241.1</ele>
        <time>2015-09-23T15:12:34Z</time>
      </trkpt>
      <trkpt lat="43.48257" lon="6.06473">
        <ele>241.9</ele>
        <time>2015-09-23T15:13:02Z</time>
      </trkpt>
      <trkpt lat="43.48252" lon="6.06482">
        <ele>242.2</ele>
        <time>2015-09-23T15:13:11Z</time>
      </trkpt>
      <trkpt lat="43.48248" lon="6.06494">
        <ele>242.1</ele>
        <time>2015-09-23T15:13:19Z</time>
      </trkpt>
      <trkpt lat="43.48246" lon="6.06505">
        <ele>241.8</ele>
        <time>2015-09-23T15:13:27Z</time>
      </trkpt>
      <trkpt lat="43.48245" lon="6.06516">
        <ele>242.3</ele>
        <time>2015-09-23T15:13:34Z</time>
      </trkpt>
      <trkpt lat="43.48245" lon="6.06518">
        <ele>242.4</ele>
        <time>2015-09-23T15:13:35Z</time>
      </trkpt>
      <trkpt lat="43.48238" lon="6.06536">
        <ele>242.3</ele>
        <time>2015-09-23T15:13:50Z</time>
      </trkpt>
      <trkpt lat="43.48233" lon="6.06545">
        <ele>242.8</ele>
        <time>2015-09-23T15:13:58Z</time>
      </trkpt>
      <trkpt lat="43.48227" lon="6.06552">
        <ele>242.7</ele>
        <time>2015-09-23T15:14:06Z</time>
      </trkpt>
      <trkpt lat="43.48219" lon="6.06555">
        <ele>242.9</ele>
        <time>2015-09-23T15:14:14Z</time>
      </trkpt>
      <trkpt lat="43.48212" lon="6.06561">
        <ele>242.2</ele>
        <time>2015-09-23T15:14:22Z</time>
      </trkpt>
      <trkpt lat="43.48203" lon="6.06565">
        <ele>242.9</ele>
        <time>2015-09-23T15:14:30Z</time>
      </trkpt>
      <trkpt lat="43.48196" lon="6.06566">
        <ele>242.8</ele>
        <time>2015-09-23T15:14:37Z</time>
      </trkpt>
      <trkpt lat="43.48194" lon="6.06566">
        <ele>242.8</ele>
        <time>2015-09-23T15:14:38Z</time>
      </trkpt>
      <trkpt lat="43.48179" lon="6.06571">
        <ele>243.5</ele>
        <time>2015-09-23T15:14:51Z</time>
      </trkpt>
      <trkpt lat="43.4817" lon="6.06573">
        <ele>243.6</ele>
        <time>2015-09-23T15:14:59Z</time>
      </trkpt>
      <trkpt lat="43.48162" lon="6.06576">
        <ele>243.8</ele>
        <time>2015-09-23T15:15:07Z</time>
      </trkpt>
      <trkpt lat="43.48155" lon="6.06579">
        <ele>244.1</ele>
        <time>2015-09-23T15:15:14Z</time>
      </trkpt>
      <trkpt lat="43.48147" lon="6.06583">
        <ele>244.6</ele>
        <time>2015-09-23T15:15:23Z</time>
      </trkpt>
      <trkpt lat="43.48139" lon="6.06587">
        <ele>246.9</ele>
        <time>2015-09-23T15:15:35Z</time>
      </trkpt>
      <trkpt lat="43.4813" lon="6.06591">
        <ele>247.8</ele>
        <time>2015-09-23T15:15:44Z</time>
      </trkpt>
      <trkpt lat="43.4813" lon="6.06591">
        <ele>247.8</ele>
        <time>2015-09-23T15:15:45Z</time>
      </trkpt>
      <trkpt lat="43.48115" lon="6.06602">
        <ele>247.7</ele>
        <time>2015-09-23T15:16:08Z</time>
      </trkpt>
      <trkpt lat="43.48109" lon="6.06609">
        <ele>247.3</ele>
        <time>2015-09-23T15:16:15Z</time>
      </trkpt>
      <trkpt lat="43.48103" lon="6.06617">
        <ele>247.1</ele>
        <time>2015-09-23T15:16:23Z</time>
      </trkpt>
      <trkpt lat="43.48097" lon="6.06627">
        <ele>246.6</ele>
        <time>2015-09-23T15:16:32Z</time>
      </trkpt>
      <trkpt lat="43.48092" lon="6.06636">
        <ele>247.1</ele>
        <time>2015-09-23T15:16:40Z</time>
      </trkpt>
      <trkpt lat="43.48088" lon="6.06646">
        <ele>246.6</ele>
        <time>2015-09-23T15:16:47Z</time>
      </trkpt>
      <trkpt lat="43.48087" lon="6.06647">
        <ele>246.6</ele>
        <time>2015-09-23T15:16:48Z</time>
      </trkpt>
      <trkpt lat="43.4809" lon="6.06667">
        <ele>247</ele>
        <time>2015-09-23T15:17:06Z</time>
      </trkpt>
      <trkpt lat="43.48096" lon="6.06676">
        <ele>247.4</ele>
        <time>2015-09-23T15:17:15Z</time>
      </trkpt>
      <trkpt lat="43.48102" lon="6.06684">
        <ele>247.7</ele>
        <time>2015-09-23T15:17:21Z</time>
      </trkpt>
      <trkpt lat="43.48101" lon="6.06696">
        <ele>249.5</ele>
        <time>2015-09-23T15:17:33Z</time>
      </trkpt>
      <trkpt lat="43.48097" lon="6.06706">
        <ele>250.9</ele>
        <time>2015-09-23T15:17:45Z</time>
      </trkpt>
      <trkpt lat="43.4809" lon="6.06714">
        <ele>251.9</ele>
        <time>2015-09-23T15:18:03Z</time>
      </trkpt>
      <trkpt lat="43.4809" lon="6.06715">
        <ele>251.9</ele>
        <time>2015-09-23T15:18:04Z</time>
      </trkpt>
      <trkpt lat="43.48104" lon="6.06703">
        <ele>249.9</ele>
        <time>2015-09-23T15:18:51Z</time>
      </trkpt>
      <trkpt lat="43.4811" lon="6.06694">
        <ele>249.1</ele>
        <time>2015-09-23T15:19:04Z</time>
      </trkpt>
      <trkpt lat="43.4811" lon="6.06694">
        <ele>249</ele>
        <time>2015-09-23T15:19:05Z</time>
      </trkpt>
      <trkpt lat="43.48105" lon="6.06673">
        <ele>246.9</ele>
        <time>2015-09-23T15:19:40Z</time>
      </trkpt>
      <trkpt lat="43.48096" lon="6.06671">
        <ele>247.5</ele>
        <time>2015-09-23T15:20:05Z</time>
      </trkpt>
      <trkpt lat="43.48096" lon="6.06672">
        <ele>247.7</ele>
        <time>2015-09-23T15:20:06Z</time>
      </trkpt>
      <trkpt lat="43.48104" lon="6.06692">
        <ele>248.6</ele>
        <time>2015-09-23T15:20:32Z</time>
      </trkpt>
      <trkpt lat="43.48109" lon="6.06702">
        <ele>251.3</ele>
        <time>2015-09-23T15:21:20Z</time>
      </trkpt>
      <trkpt lat="43.48109" lon="6.06702">
        <ele>251.6</ele>
        <time>2015-09-23T15:21:21Z</time>
      </trkpt>
      <trkpt lat="43.4811" lon="6.06725">
        <ele>254.8</ele>
        <time>2015-09-23T15:21:56Z</time>
      </trkpt>
      <trkpt lat="43.48106" lon="6.06736">
        <ele>257.4</ele>
        <time>2015-09-23T15:22:11Z</time>
      </trkpt>
      <trkpt lat="43.48107" lon="6.06748">
        <ele>257.9</ele>
        <time>2015-09-23T15:22:23Z</time>
      </trkpt>
      <trkpt lat="43.48108" lon="6.06749">
        <ele>258.2</ele>
        <time>2015-09-23T15:22:24Z</time>
      </trkpt>
      <trkpt lat="43.48109" lon="6.06772">
        <ele>263.9</ele>
        <time>2015-09-23T15:22:54Z</time>
      </trkpt>
      <trkpt lat="43.48112" lon="6.06782">
        <ele>265.9</ele>
        <time>2015-09-23T15:23:06Z</time>
      </trkpt>
      <trkpt lat="43.48113" lon="6.06794">
        <ele>266.8</ele>
        <time>2015-09-23T15:23:16Z</time>
      </trkpt>
      <trkpt lat="43.48113" lon="6.06806">
        <ele>266</ele>
        <time>2015-09-23T15:23:28Z</time>
      </trkpt>
      <trkpt lat="43.48112" lon="6.06807">
        <ele>266.1</ele>
        <time>2015-09-23T15:23:29Z</time>
      </trkpt>
      <trkpt lat="43.48102" lon="6.06826">
        <ele>264.6</ele>
        <time>2015-09-23T15:23:51Z</time>
      </trkpt>
      <trkpt lat="43.48098" lon="6.06835">
        <ele>263.9</ele>
        <time>2015-09-23T15:24:00Z</time>
      </trkpt>
      <trkpt lat="43.48093" lon="6.06844">
        <ele>263</ele>
        <time>2015-09-23T15:24:10Z</time>
      </trkpt>
      <trkpt lat="43.48089" lon="6.06854">
        <ele>262.5</ele>
        <time>2015-09-23T15:24:18Z</time>
      </trkpt>
      <trkpt lat="43.48087" lon="6.06866">
        <ele>261.2</ele>
        <time>2015-09-23T15:24:27Z</time>
      </trkpt>
      <trkpt lat="43.48085" lon="6.06878">
        <ele>259.1</ele>
        <time>2015-09-23T15:24:39Z</time>
      </trkpt>
      <trkpt lat="43.48085" lon="6.0688">
        <ele>259.2</ele>
        <time>2015-09-23T15:24:40Z</time>
      </trkpt>
      <trkpt lat="43.48095" lon="6.06898">
        <ele>256.9</ele>
        <time>2015-09-23T15:24:57Z</time>
      </trkpt>
      <trkpt lat="43.48098" lon="6.06908">
        <ele>255.6</ele>
        <time>2015-09-23T15:25:04Z</time>
      </trkpt>
      <trkpt lat="43.48103" lon="6.06918">
        <ele>254.8</ele>
        <time>2015-09-23T15:25:14Z</time>
      </trkpt>
      <trkpt lat="43.48109" lon="6.06924">
        <ele>254.2</ele>
        <time>2015-09-23T15:25:22Z</time>
      </trkpt>
      <trkpt lat="43.48114" lon="6.06934">
        <ele>253.8</ele>
        <time>2015-09-23T15:25:30Z</time>
      </trkpt>
      <trkpt lat="43.48118" lon="6.06944">
        <ele>252</ele>
        <time>2015-09-23T15:25:41Z</time>
      </trkpt>
      <trkpt lat="43.48119" lon="6.06945">
        <ele>251.5</ele>
        <time>2015-09-23T15:25:42Z</time>
      </trkpt>
      <trkpt lat="43.48126" lon="6.06965">
        <ele>249.7</ele>
        <time>2015-09-23T15:25:56Z</time>
      </trkpt>
      <trkpt lat="43.4813" lon="6.06975">
        <ele>250.1</ele>
        <time>2015-09-23T15:26:03Z</time>
      </trkpt>
      <trkpt lat="43.48133" lon="6.06986">
        <ele>249.3</ele>
        <time>2015-09-23T15:26:10Z</time>
      </trkpt>
      <trkpt lat="43.48137" lon="6.06996">
        <ele>246.8</ele>
        <time>2015-09-23T15:26:18Z</time>
      </trkpt>
      <trkpt lat="43.4814" lon="6.07006">
        <ele>247.7</ele>
        <time>2015-09-23T15:26:25Z</time>
      </trkpt>
      <trkpt lat="43.48144" lon="6.07016">
        <ele>247.2</ele>
        <time>2015-09-23T15:26:31Z</time>
      </trkpt>
      <trkpt lat="43.48147" lon="6.07026">
        <ele>246.1</ele>
        <time>2015-09-23T15:26:37Z</time>
      </trkpt>
      <trkpt lat="43.48151" lon="6.07036">
        <ele>245</ele>
        <time>2015-09-23T15:26:44Z</time>
      </trkpt>
      <trkpt lat="43.48151" lon="6.07038">
        <ele>244.9</ele>
        <time>2015-09-23T15:26:45Z</time>
      </trkpt>
      <trkpt lat="43.48159" lon="6.07056">
        <ele>244.7</ele>
        <time>2015-09-23T15:27:00Z</time>
      </trkpt>
      <trkpt lat="43.48163" lon="6.07067">
        <ele>243.4</ele>
        <time>2015-09-23T15:27:09Z</time>
      </trkpt>
      <trkpt lat="43.48168" lon="6.07077">
        <ele>243.7</ele>
        <time>2015-09-23T15:27:17Z</time>
      </trkpt>
      <trkpt lat="43.48171" lon="6.07087">
        <ele>242.7</ele>
        <time>2015-09-23T15:27:25Z</time>
      </trkpt>
      <trkpt lat="43.48173" lon="6.07098">
        <ele>240.9</ele>
        <time>2015-09-23T15:27:32Z</time>
      </trkpt>
      <trkpt lat="43.48174" lon="6.0711">
        <ele>240.2</ele>
        <time>2015-09-23T15:27:40Z</time>
      </trkpt>
      <trkpt lat="43.48177" lon="6.0712">
        <ele>238.7</ele>
        <time>2015-09-23T15:27:47Z</time>
      </trkpt>
      <trkpt lat="43.48178" lon="6.07122">
        <ele>238.1</ele>
        <time>2015-09-23T15:27:48Z</time>
      </trkpt>
      <trkpt lat="43.48186" lon="6.0714">
        <ele>236.5</ele>
        <time>2015-09-23T15:28:04Z</time>
      </trkpt>
      <trkpt lat="43.4819" lon="6.0715">
        <ele>236</ele>
        <time>2015-09-23T15:28:12Z</time>
      </trkpt>
      <trkpt lat="43.48195" lon="6.07159">
        <ele>234.4</ele>
        <time>2015-09-23T15:28:20Z</time>
      </trkpt>
      <trkpt lat="43.482" lon="6.07169">
        <ele>233.3</ele>
        <time>2015-09-23T15:28:27Z</time>
      </trkpt>
      <trkpt lat="43.48205" lon="6.07179">
        <ele>232.6</ele>
        <time>2015-09-23T15:28:34Z</time>
      </trkpt>
      <trkpt lat="43.4821" lon="6.07189">
        <ele>231.2</ele>
        <time>2015-09-23T15:28:41Z</time>
      </trkpt>
      <trkpt lat="43.48214" lon="6.07197">
        <ele>228.8</ele>
        <time>2015-09-23T15:28:49Z</time>
      </trkpt>
      <trkpt lat="43.48215" lon="6.07199">
        <ele>228.5</ele>
        <time>2015-09-23T15:28:50Z</time>
      </trkpt>
      <trkpt lat="43.4822" lon="6.07218">
        <ele>228.1</ele>
        <time>2015-09-23T15:29:05Z</time>
      </trkpt>
      <trkpt lat="43.4822" lon="6.07229">
        <ele>227.5</ele>
        <time>2015-09-23T15:29:12Z</time>
      </trkpt>
      <trkpt lat="43.48222" lon="6.0724">
        <ele>226.5</ele>
        <time>2015-09-23T15:29:20Z</time>
      </trkpt>
      <trkpt lat="43.48225" lon="6.07251">
        <ele>226.1</ele>
        <time>2015-09-23T15:29:27Z</time>
      </trkpt>
      <trkpt lat="43.4823" lon="6.07261">
        <ele>224.9</ele>
        <time>2015-09-23T15:29:38Z</time>
      </trkpt>
      <trkpt lat="43.48235" lon="6.0727">
        <ele>224.5</ele>
        <time>2015-09-23T15:29:47Z</time>
      </trkpt>
      <trkpt lat="43.4824" lon="6.07279">
        <ele>223.9</ele>
        <time>2015-09-23T15:29:53Z</time>
      </trkpt>
      <trkpt lat="43.48241" lon="6.0728">
        <ele>223.7</ele>
        <time>2015-09-23T15:29:54Z</time>
      </trkpt>
      <trkpt lat="43.48251" lon="6.07296">
        <ele>222.8</ele>
        <time>2015-09-23T15:30:07Z</time>
      </trkpt>
      <trkpt lat="43.48256" lon="6.07305">
        <ele>221.9</ele>
        <time>2015-09-23T15:30:14Z</time>
      </trkpt>
      <trkpt lat="43.48262" lon="6.07314">
        <ele>220.7</ele>
        <time>2015-09-23T15:30:20Z</time>
      </trkpt>
      <trkpt lat="43.48269" lon="6.0732">
        <ele>218.8</ele>
        <time>2015-09-23T15:30:26Z</time>
      </trkpt>
      <trkpt lat="43.48277" lon="6.07322">
        <ele>218.6</ele>
        <time>2015-09-23T15:30:33Z</time>
      </trkpt>
      <trkpt lat="43.48286" lon="6.07326">
        <ele>217.5</ele>
        <time>2015-09-23T15:30:42Z</time>
      </trkpt>
      <trkpt lat="43.48291" lon="6.07334">
        <ele>215.9</ele>
        <time>2015-09-23T15:30:50Z</time>
      </trkpt>
      <trkpt lat="43.48297" lon="6.07342">
        <ele>216.1</ele>
        <time>2015-09-23T15:30:58Z</time>
      </trkpt>
      <trkpt lat="43.48298" lon="6.07344">
        <ele>216.1</ele>
        <time>2015-09-23T15:30:59Z</time>
      </trkpt>
      <trkpt lat="43.4831" lon="6.07357">
        <ele>214.5</ele>
        <time>2015-09-23T15:31:12Z</time>
      </trkpt>
      <trkpt lat="43.48318" lon="6.07357">
        <ele>214.2</ele>
        <time>2015-09-23T15:31:19Z</time>
      </trkpt>
      <trkpt lat="43.48327" lon="6.07356">
        <ele>213.1</ele>
        <time>2015-09-23T15:31:26Z</time>
      </trkpt>
      <trkpt lat="43.48336" lon="6.07356">
        <ele>211.6</ele>
        <time>2015-09-23T15:31:33Z</time>
      </trkpt>
      <trkpt lat="43.48344" lon="6.07356">
        <ele>211</ele>
        <time>2015-09-23T15:31:41Z</time>
      </trkpt>
      <trkpt lat="43.48353" lon="6.07358">
        <ele>209.3</ele>
        <time>2015-09-23T15:31:50Z</time>
      </trkpt>
      <trkpt lat="43.4836" lon="6.07363">
        <ele>207.5</ele>
        <time>2015-09-23T15:31:58Z</time>
      </trkpt>
      <trkpt lat="43.48368" lon="6.07368">
        <ele>206.7</ele>
        <time>2015-09-23T15:32:06Z</time>
      </trkpt>
      <trkpt lat="43.48369" lon="6.07369">
        <ele>206.3</ele>
        <time>2015-09-23T15:32:07Z</time>
      </trkpt>
      <trkpt lat="43.48383" lon="6.07378">
        <ele>204.8</ele>
        <time>2015-09-23T15:32:21Z</time>
      </trkpt>
      <trkpt lat="43.48386" lon="6.0739">
        <ele>204.3</ele>
        <time>2015-09-23T15:32:31Z</time>
      </trkpt>
      <trkpt lat="43.48389" lon="6.074">
        <ele>203.3</ele>
        <time>2015-09-23T15:32:39Z</time>
      </trkpt>
      <trkpt lat="43.48392" lon="6.07412">
        <ele>202.3</ele>
        <time>2015-09-23T15:32:46Z</time>
      </trkpt>
      <trkpt lat="43.48394" lon="6.07423">
        <ele>200.7</ele>
        <time>2015-09-23T15:32:54Z</time>
      </trkpt>
      <trkpt lat="43.48396" lon="6.07435">
        <ele>200.7</ele>
        <time>2015-09-23T15:33:02Z</time>
      </trkpt>
      <trkpt lat="43.48396" lon="6.07447">
        <ele>201</ele>
        <time>2015-09-23T15:33:09Z</time>
      </trkpt>
      <trkpt lat="43.48396" lon="6.07448">
        <ele>200.4</ele>
        <time>2015-09-23T15:33:10Z</time>
      </trkpt>
      <trkpt lat="43.48404" lon="6.07468">
        <ele>198.4</ele>
        <time>2015-09-23T15:33:24Z</time>
      </trkpt>
      <trkpt lat="43.4841" lon="6.07477">
        <ele>197.7</ele>
        <time>2015-09-23T15:33:32Z</time>
      </trkpt>
      <trkpt lat="43.48414" lon="6.07488">
        <ele>197.6</ele>
        <time>2015-09-23T15:33:39Z</time>
      </trkpt>
      <trkpt lat="43.48419" lon="6.07497">
        <ele>197.1</ele>
        <time>2015-09-23T15:33:47Z</time>
      </trkpt>
      <trkpt lat="43.48423" lon="6.07507">
        <ele>197.6</ele>
        <time>2015-09-23T15:33:55Z</time>
      </trkpt>
      <trkpt lat="43.48429" lon="6.07516">
        <ele>197.4</ele>
        <time>2015-09-23T15:34:02Z</time>
      </trkpt>
      <trkpt lat="43.48436" lon="6.07522">
        <ele>197.1</ele>
        <time>2015-09-23T15:34:10Z</time>
      </trkpt>
      <trkpt lat="43.48437" lon="6.07523">
        <ele>197.1</ele>
        <time>2015-09-23T15:34:11Z</time>
      </trkpt>
      <trkpt lat="43.48447" lon="6.07538">
        <ele>196.8</ele>
        <time>2015-09-23T15:34:22Z</time>
      </trkpt>
      <trkpt lat="43.48452" lon="6.07548">
        <ele>197</ele>
        <time>2015-09-23T15:34:29Z</time>
      </trkpt>
      <trkpt lat="43.48456" lon="6.07558">
        <ele>195</ele>
        <time>2015-09-23T15:34:37Z</time>
      </trkpt>
      <trkpt lat="43.48458" lon="6.0757">
        <ele>194.7</ele>
        <time>2015-09-23T15:34:44Z</time>
      </trkpt>
      <trkpt lat="43.48461" lon="6.0758">
        <ele>193.5</ele>
        <time>2015-09-23T15:34:51Z</time>
      </trkpt>
      <trkpt lat="43.48464" lon="6.07591">
        <ele>191.8</ele>
        <time>2015-09-23T15:34:59Z</time>
      </trkpt>
      <trkpt lat="43.48467" lon="6.07601">
        <ele>190.8</ele>
        <time>2015-09-23T15:35:05Z</time>
      </trkpt>
      <trkpt lat="43.4847" lon="6.07612">
        <ele>191.4</ele>
        <time>2015-09-23T15:35:11Z</time>
      </trkpt>
      <trkpt lat="43.4847" lon="6.07613">
        <ele>191.8</ele>
        <time>2015-09-23T15:35:12Z</time>
      </trkpt>
      <trkpt lat="43.48478" lon="6.07632">
        <ele>190.2</ele>
        <time>2015-09-23T15:35:27Z</time>
      </trkpt>
      <trkpt lat="43.48483" lon="6.0764">
        <ele>189.5</ele>
        <time>2015-09-23T15:35:34Z</time>
      </trkpt>
      <trkpt lat="43.48488" lon="6.0765">
        <ele>188.6</ele>
        <time>2015-09-23T15:35:41Z</time>
      </trkpt>
      <trkpt lat="43.48492" lon="6.07661">
        <ele>188.4</ele>
        <time>2015-09-23T15:35:48Z</time>
      </trkpt>
      <trkpt lat="43.48498" lon="6.07669">
        <ele>187.9</ele>
        <time>2015-09-23T15:35:54Z</time>
      </trkpt>
      <trkpt lat="43.48504" lon="6.07677">
        <ele>188.2</ele>
        <time>2015-09-23T15:36:01Z</time>
      </trkpt>
      <trkpt lat="43.48509" lon="6.07687">
        <ele>187.6</ele>
        <time>2015-09-23T15:36:08Z</time>
      </trkpt>
      <trkpt lat="43.48515" lon="6.07695">
        <ele>186.7</ele>
        <time>2015-09-23T15:36:15Z</time>
      </trkpt>
      <trkpt lat="43.48516" lon="6.07695">
        <ele>186.8</ele>
        <time>2015-09-23T15:36:16Z</time>
      </trkpt>
      <trkpt lat="43.48524" lon="6.07714">
        <ele>186.8</ele>
        <time>2015-09-23T15:37:35Z</time>
      </trkpt>
      <trkpt lat="43.48525" lon="6.07715">
        <ele>186.9</ele>
        <time>2015-09-23T15:37:36Z</time>
      </trkpt>
      <trkpt lat="43.48532" lon="6.07707">
        <ele>186.9</ele>
        <time>2015-09-23T15:38:38Z</time>
      </trkpt>
      <trkpt lat="43.48539" lon="6.07698">
        <ele>185.5</ele>
        <time>2015-09-23T15:41:54Z</time>
      </trkpt>
      <trkpt lat="43.48551" lon="6.07686">
        <ele>184.3</ele>
        <time>2015-09-23T15:42:12Z</time>
      </trkpt>
      <trkpt lat="43.48558" lon="6.07679">
        <ele>184.1</ele>
        <time>2015-09-23T15:42:23Z</time>
      </trkpt>
      <trkpt lat="43.48566" lon="6.07675">
        <ele>183.2</ele>
        <time>2015-09-23T15:42:35Z</time>
      </trkpt>
      <trkpt lat="43.48575" lon="6.07678">
        <ele>182.6</ele>
        <time>2015-09-23T15:42:45Z</time>
      </trkpt>
      <trkpt lat="43.48583" lon="6.07682">
        <ele>181.3</ele>
        <time>2015-09-23T15:42:53Z</time>
      </trkpt>
      <trkpt lat="43.4859" lon="6.07687">
        <ele>179.8</ele>
        <time>2015-09-23T15:43:00Z</time>
      </trkpt>
      <trkpt lat="43.48591" lon="6.07688">
        <ele>179.5</ele>
        <time>2015-09-23T15:43:01Z</time>
      </trkpt>
      <trkpt lat="43.48602" lon="6.07702">
        <ele>176.9</ele>
        <time>2015-09-23T15:43:16Z</time>
      </trkpt>
      <trkpt lat="43.48606" lon="6.07712">
        <ele>175.4</ele>
        <time>2015-09-23T15:43:25Z</time>
      </trkpt>
      <trkpt lat="43.48608" lon="6.07723">
        <ele>174.9</ele>
        <time>2015-09-23T15:43:32Z</time>
      </trkpt>
      <trkpt lat="43.48611" lon="6.07735">
        <ele>173.2</ele>
        <time>2015-09-23T15:43:43Z</time>
      </trkpt>
      <trkpt lat="43.48616" lon="6.07744">
        <ele>170.7</ele>
        <time>2015-09-23T15:43:52Z</time>
      </trkpt>
      <trkpt lat="43.48619" lon="6.07754">
        <ele>169.4</ele>
        <time>2015-09-23T15:44:00Z</time>
      </trkpt>
      <trkpt lat="43.48623" lon="6.07765">
        <ele>169.3</ele>
        <time>2015-09-23T15:44:07Z</time>
      </trkpt>
      <trkpt lat="43.48623" lon="6.07766">
        <ele>169.1</ele>
        <time>2015-09-23T15:44:08Z</time>
      </trkpt>
      <trkpt lat="43.48633" lon="6.07782">
        <ele>168.8</ele>
        <time>2015-09-23T15:44:19Z</time>
      </trkpt>
      <trkpt lat="43.48638" lon="6.07789">
        <ele>168.8</ele>
        <time>2015-09-23T15:44:24Z</time>
      </trkpt>
      <trkpt lat="43.48643" lon="6.07798">
        <ele>167.8</ele>
        <time>2015-09-23T15:44:29Z</time>
      </trkpt>
      <trkpt lat="43.48647" lon="6.07809">
        <ele>167.8</ele>
        <time>2015-09-23T15:44:39Z</time>
      </trkpt>
      <trkpt lat="43.48651" lon="6.07819">
        <ele>167.7</ele>
        <time>2015-09-23T15:44:47Z</time>
      </trkpt>
      <trkpt lat="43.48656" lon="6.07828">
        <ele>167.1</ele>
        <time>2015-09-23T15:44:53Z</time>
      </trkpt>
      <trkpt lat="43.48661" lon="6.07836">
        <ele>166.9</ele>
        <time>2015-09-23T15:44:59Z</time>
      </trkpt>
      <trkpt lat="43.48667" lon="6.07842">
        <ele>166.9</ele>
        <time>2015-09-23T15:45:03Z</time>
      </trkpt>
      <trkpt lat="43.48673" lon="6.07848">
        <ele>167.1</ele>
        <time>2015-09-23T15:45:08Z</time>
      </trkpt>
      <trkpt lat="43.48675" lon="6.07849">
        <ele>166.9</ele>
        <time>2015-09-23T15:45:09Z</time>
      </trkpt>
      <trkpt lat="43.48684" lon="6.07864">
        <ele>166</ele>
        <time>2015-09-23T15:45:24Z</time>
      </trkpt>
      <trkpt lat="43.48691" lon="6.07872">
        <ele>165.3</ele>
        <time>2015-09-23T15:45:30Z</time>
      </trkpt>
      <trkpt lat="43.48693" lon="6.07883">
        <ele>165.1</ele>
        <time>2015-09-23T15:45:38Z</time>
      </trkpt>
      <trkpt lat="43.48696" lon="6.07894">
        <ele>165</ele>
        <time>2015-09-23T15:45:45Z</time>
      </trkpt>
      <trkpt lat="43.48701" lon="6.07902">
        <ele>165.1</ele>
        <time>2015-09-23T15:45:51Z</time>
      </trkpt>
      <trkpt lat="43.48706" lon="6.0791">
        <ele>164.8</ele>
        <time>2015-09-23T15:45:56Z</time>
      </trkpt>
      <trkpt lat="43.48713" lon="6.07918">
        <ele>165</ele>
        <time>2015-09-23T15:46:02Z</time>
      </trkpt>
      <trkpt lat="43.48721" lon="6.07923">
        <ele>165</ele>
        <time>2015-09-23T15:46:07Z</time>
      </trkpt>
      <trkpt lat="43.48725" lon="6.07934">
        <ele>165.3</ele>
        <time>2015-09-23T15:46:15Z</time>
      </trkpt>
      <trkpt lat="43.48726" lon="6.07935">
        <ele>165.2</ele>
        <time>2015-09-23T15:46:16Z</time>
      </trkpt>
      <trkpt lat="43.48738" lon="6.07945">
        <ele>165</ele>
        <time>2015-09-23T15:46:25Z</time>
      </trkpt>
      <trkpt lat="43.48742" lon="6.07955">
        <ele>164.8</ele>
        <time>2015-09-23T15:46:32Z</time>
      </trkpt>
      <trkpt lat="43.48747" lon="6.07964">
        <ele>165.1</ele>
        <time>2015-09-23T15:46:41Z</time>
      </trkpt>
      <trkpt lat="43.4875" lon="6.07976">
        <ele>165</ele>
        <time>2015-09-23T15:46:48Z</time>
      </trkpt>
      <trkpt lat="43.48746" lon="6.07985">
        <ele>164.8</ele>
        <time>2015-09-23T15:46:53Z</time>
      </trkpt>
      <trkpt lat="43.48739" lon="6.07993">
        <ele>164</ele>
        <time>2015-09-23T15:46:58Z</time>
      </trkpt>
      <trkpt lat="43.48732" lon="6.07999">
        <ele>164.1</ele>
        <time>2015-09-23T15:47:04Z</time>
      </trkpt>
      <trkpt lat="43.48732" lon="6.08011">
        <ele>163.8</ele>
        <time>2015-09-23T15:47:15Z</time>
      </trkpt>
      <trkpt lat="43.48727" lon="6.08019">
        <ele>164.1</ele>
        <time>2015-09-23T15:47:21Z</time>
      </trkpt>
      <trkpt lat="43.48725" lon="6.08019">
        <ele>163.8</ele>
        <time>2015-09-23T15:47:22Z</time>
      </trkpt>
      <trkpt lat="43.48714" lon="6.08034">
        <ele>163.5</ele>
        <time>2015-09-23T15:47:35Z</time>
      </trkpt>
      <trkpt lat="43.4871" lon="6.08044">
        <ele>163.3</ele>
        <time>2015-09-23T15:47:41Z</time>
      </trkpt>
      <trkpt lat="43.48706" lon="6.08054">
        <ele>163.1</ele>
        <time>2015-09-23T15:47:46Z</time>
      </trkpt>
      <trkpt lat="43.48709" lon="6.08064">
        <ele>163.7</ele>
        <time>2015-09-23T15:47:52Z</time>
      </trkpt>
      <trkpt lat="43.48713" lon="6.08073">
        <ele>162.9</ele>
        <time>2015-09-23T15:47:57Z</time>
      </trkpt>
      <trkpt lat="43.48722" lon="6.08072">
        <ele>163.9</ele>
        <time>2015-09-23T15:48:04Z</time>
      </trkpt>
      <trkpt lat="43.48729" lon="6.08066">
        <ele>165.7</ele>
        <time>2015-09-23T15:48:14Z</time>
      </trkpt>
      <trkpt lat="43.48738" lon="6.08064">
        <ele>167.5</ele>
        <time>2015-09-23T15:48:27Z</time>
      </trkpt>
      <trkpt lat="43.48738" lon="6.08064">
        <ele>168</ele>
        <time>2015-09-23T15:48:28Z</time>
      </trkpt>
      <trkpt lat="43.48752" lon="6.08073">
        <ele>172.1</ele>
        <time>2015-09-23T15:49:12Z</time>
      </trkpt>
      <trkpt lat="43.48757" lon="6.08082">
        <ele>173.3</ele>
        <time>2015-09-23T15:49:27Z</time>
      </trkpt>
      <trkpt lat="43.48749" lon="6.08088">
        <ele>173.7</ele>
        <time>2015-09-23T15:50:06Z</time>
      </trkpt>
      <trkpt lat="43.48748" lon="6.08088">
        <ele>173.8</ele>
        <time>2015-09-23T15:50:07Z</time>
      </trkpt>
      <trkpt lat="43.4877" lon="6.08068">
        <ele>174.5</ele>
        <time>2015-09-23T15:52:55Z</time>
      </trkpt>
      <trkpt lat="43.48725" lon="6.08055">
        <ele>173</ele>
        <time>2015-09-23T15:54:08Z</time>
      </trkpt>
      <trkpt lat="43.48687" lon="6.08061">
        <ele>174.8</ele>
        <time>2015-09-23T15:54:43Z</time>
      </trkpt>
      <trkpt lat="43.48762" lon="6.08093">
        <ele>176.2</ele>
        <time>2015-09-23T15:54:47Z</time>
      </trkpt>
      <trkpt lat="43.48767" lon="6.08084">
        <ele>177.4</ele>
        <time>2015-09-23T15:54:54Z</time>
      </trkpt>
      <trkpt lat="43.48774" lon="6.08077">
        <ele>177.7</ele>
        <time>2015-09-23T15:55:03Z</time>
      </trkpt>
      <trkpt lat="43.48766" lon="6.0808">
        <ele>178.1</ele>
        <time>2015-09-23T15:55:58Z</time>
      </trkpt>
      <trkpt lat="43.48765" lon="6.0808">
        <ele>178.2</ele>
        <time>2015-09-23T15:55:59Z</time>
      </trkpt>
      <trkpt lat="43.48759" lon="6.08071">
        <ele>175.9</ele>
        <time>2015-09-23T15:57:03Z</time>
      </trkpt>
      <trkpt lat="43.48753" lon="6.08063">
        <ele>170.1</ele>
        <time>2015-09-23T16:01:14Z</time>
      </trkpt>
      <trkpt lat="43.48737" lon="6.08067">
        <ele>165.4</ele>
        <time>2015-09-23T16:02:16Z</time>
      </trkpt>
      <trkpt lat="43.48735" lon="6.08068">
        <ele>165.3</ele>
        <time>2015-09-23T16:02:17Z</time>
      </trkpt>
      <trkpt lat="43.48722" lon="6.08073">
        <ele>162.2</ele>
        <time>2015-09-23T16:02:27Z</time>
      </trkpt>
      <trkpt lat="43.4872" lon="6.08062">
        <ele>162.3</ele>
        <time>2015-09-23T16:03:19Z</time>
      </trkpt>
      <trkpt lat="43.4872" lon="6.0806">
        <ele>162.7</ele>
        <time>2015-09-23T16:03:20Z</time>
      </trkpt>
      <trkpt lat="43.48724" lon="6.08039">
        <ele>161.8</ele>
        <time>2015-09-23T16:03:32Z</time>
      </trkpt>
      <trkpt lat="43.48723" lon="6.08028">
        <ele>161.6</ele>
        <time>2015-09-23T16:03:40Z</time>
      </trkpt>
      <trkpt lat="43.48717" lon="6.0802">
        <ele>161.3</ele>
        <time>2015-09-23T16:03:47Z</time>
      </trkpt>
      <trkpt lat="43.4871" lon="6.08015">
        <ele>161.9</ele>
        <time>2015-09-23T16:03:52Z</time>
      </trkpt>
      <trkpt lat="43.48703" lon="6.08012">
        <ele>161.8</ele>
        <time>2015-09-23T16:03:55Z</time>
      </trkpt>
      <trkpt lat="43.48694" lon="6.0801">
        <ele>161.3</ele>
        <time>2015-09-23T16:04:02Z</time>
      </trkpt>
      <trkpt lat="43.48685" lon="6.08012">
        <ele>161.3</ele>
        <time>2015-09-23T16:04:12Z</time>
      </trkpt>
      <trkpt lat="43.48677" lon="6.08011">
        <ele>160.5</ele>
        <time>2015-09-23T16:04:18Z</time>
      </trkpt>
      <trkpt lat="43.48669" lon="6.0801">
        <ele>160.5</ele>
        <time>2015-09-23T16:04:25Z</time>
      </trkpt>
      <trkpt lat="43.48668" lon="6.0801">
        <ele>160.5</ele>
        <time>2015-09-23T16:04:26Z</time>
      </trkpt>
      <trkpt lat="43.48653" lon="6.08009">
        <ele>160.7</ele>
        <time>2015-09-23T16:04:42Z</time>
      </trkpt>
      <trkpt lat="43.48644" lon="6.08013">
        <ele>160.7</ele>
        <time>2015-09-23T16:04:51Z</time>
      </trkpt>
      <trkpt lat="43.48642" lon="6.08023">
        <ele>160.7</ele>
        <time>2015-09-23T16:05:00Z</time>
      </trkpt>
      <trkpt lat="43.48634" lon="6.08024">
        <ele>160.8</ele>
        <time>2015-09-23T16:05:08Z</time>
      </trkpt>
      <trkpt lat="43.48626" lon="6.08026">
        <ele>161.1</ele>
        <time>2015-09-23T16:05:14Z</time>
      </trkpt>
      <trkpt lat="43.4862" lon="6.08033">
        <ele>160.5</ele>
        <time>2015-09-23T16:05:25Z</time>
      </trkpt>
      <trkpt lat="43.48612" lon="6.08036">
        <ele>161.3</ele>
        <time>2015-09-23T16:05:35Z</time>
      </trkpt>
      <trkpt lat="43.4861" lon="6.08037">
        <ele>161.1</ele>
        <time>2015-09-23T16:05:36Z</time>
      </trkpt>
      <trkpt lat="43.48598" lon="6.08048">
        <ele>159.8</ele>
        <time>2015-09-23T16:05:49Z</time>
      </trkpt>
      <trkpt lat="43.48592" lon="6.08056">
        <ele>159.2</ele>
        <time>2015-09-23T16:05:56Z</time>
      </trkpt>
      <trkpt lat="43.48584" lon="6.08061">
        <ele>159.6</ele>
        <time>2015-09-23T16:06:06Z</time>
      </trkpt>
      <trkpt lat="43.48576" lon="6.08064">
        <ele>158.6</ele>
        <time>2015-09-23T16:06:18Z</time>
      </trkpt>
      <trkpt lat="43.48568" lon="6.08066">
        <ele>158</ele>
        <time>2015-09-23T16:06:28Z</time>
      </trkpt>
      <trkpt lat="43.48559" lon="6.08066">
        <ele>157.2</ele>
        <time>2015-09-23T16:07:04Z</time>
      </trkpt>
      <trkpt lat="43.48558" lon="6.08065">
        <ele>157.2</ele>
        <time>2015-09-23T16:07:05Z</time>
      </trkpt>
    </trkseg>
  </trk>
</gpx>